<?xml version='1.0' encoding='UTF-8'?><gpx version="1.1" creator="JPX - https://github.com/jenetics/jpx" xmlns="http://www.topografix.com/GPX/1/1"><trk><trkseg><trkpt lat="42.60721279608359" lon="12.009109572228923"><ele>408.0</ele><time>2026-04-27T16:17:18Z</time></trkpt><trkpt lat="42.607137811473606" lon="12.009076581440972"><ele>408.0</ele><time>2026-04-27T16:17:21Z</time></trkpt><trkpt lat="42.60709147011579" lon="12.009006912549761"><ele>408.0</ele><time>2026-04-27T16:17:24Z</time></trkpt><trkpt lat="42.607052960314896" lon="12.008919830547358"><ele>408.0</ele><time>2026-04-27T16:17:26Z</time></trkpt><trkpt lat="42.607039211997524" lon="12.008811517985476"><ele>408.0</ele><time>2026-04-27T16:17:28Z</time></trkpt><trkpt lat="42.607004973286166" lon="12.008736343516068"><ele>408.0</ele><time>2026-04-27T16:17:30Z</time></trkpt><trkpt lat="42.60699750578401" lon="12.00862348623133"><ele>408.0</ele><time>2026-04-27T16:17:32Z</time></trkpt><trkpt lat="42.6069772222314" lon="12.008524245471774"><ele>408.0</ele><time>2026-04-27T16:17:34Z</time></trkpt><trkpt lat="42.606950467578336" lon="12.00842523311311"><ele>408.0</ele><time>2026-04-27T16:17:36Z</time></trkpt><trkpt lat="42.60694462851453" lon="12.00832377575619"><ele>408.0</ele><time>2026-04-27T16:17:38Z</time></trkpt><trkpt lat="42.60693728497342" lon="12.00823650805297"><ele>408.0</ele><time>2026-04-27T16:17:40Z</time></trkpt><trkpt lat="42.60689860805656" lon="12.008162210501572"><ele>408.0</ele><time>2026-04-27T16:19:47Z</time></trkpt><trkpt lat="42.606970098618014" lon="12.008125929171051"><ele>408.0</ele><time>2026-04-27T16:19:56Z</time></trkpt><trkpt lat="42.607002992849914" lon="12.008046948572881"><ele>408.0</ele><time>2026-04-27T16:20:02Z</time></trkpt><trkpt lat="42.6069424802259" lon="12.008098313038417"><ele>408.0</ele><time>2026-04-27T16:23:15Z</time></trkpt><trkpt lat="42.60690211878695" lon="12.007968778326475"><ele>408.0</ele><time>2026-04-27T16:26:00Z</time></trkpt><trkpt lat="42.60688569475176" lon="12.00787662847777"><ele>408.0</ele><time>2026-04-27T16:26:02Z</time></trkpt><trkpt lat="42.606866377127446" lon="12.007793933068626"><ele>408.0</ele><time>2026-04-27T16:26:05Z</time></trkpt><trkpt lat="42.60687203877045" lon="12.007698008516972"><ele>408.0</ele><time>2026-04-27T16:26:08Z</time></trkpt><trkpt lat="42.606864932791034" lon="12.007604813224853"><ele>408.0</ele><time>2026-04-27T16:26:12Z</time></trkpt><trkpt lat="42.606853159614346" lon="12.007512397405627"><ele>406.1666666666667</ele><time>2026-04-27T16:26:15Z</time></trkpt><trkpt lat="42.60684197313933" lon="12.007410437299141"><ele>404.33333333333337</ele><time>2026-04-27T16:26:18Z</time></trkpt><trkpt lat="42.60681987251191" lon="12.007307794969856"><ele>402.5</ele><time>2026-04-27T16:26:22Z</time></trkpt><trkpt lat="42.60681002088913" lon="12.007207069944954"><ele>400.6666666666667</ele><time>2026-04-27T16:26:25Z</time></trkpt><trkpt lat="42.60680371172801" lon="12.00708641059105"><ele>398.83333333333337</ele><time>2026-04-27T16:26:28Z</time></trkpt><trkpt lat="42.6067966365078" lon="12.006987980383292"><ele>397.0</ele><time>2026-04-27T16:26:31Z</time></trkpt><trkpt lat="42.60678414922245" lon="12.006894355105011"><ele>397.00000000000006</ele><time>2026-04-27T16:26:35Z</time></trkpt><trkpt lat="42.60678019646418" lon="12.00680436513257"><ele>397.0</ele><time>2026-04-27T16:26:39Z</time></trkpt><trkpt lat="42.60675258328792" lon="12.006683819274329"><ele>397.0</ele><time>2026-04-27T16:26:50Z</time></trkpt><trkpt lat="42.606715771811714" lon="12.006566206963061"><ele>397.0</ele><time>2026-04-27T16:26:52Z</time></trkpt><trkpt lat="42.606663796539046" lon="12.006432001226338"><ele>397.00000000000006</ele><time>2026-04-27T16:26:54Z</time></trkpt><trkpt lat="42.60663327653524" lon="12.00635093938277"><ele>397.0</ele><time>2026-04-27T16:26:55Z</time></trkpt><trkpt lat="42.60662460177164" lon="12.006261800578958"><ele>395.33333333333337</ele><time>2026-04-27T16:26:56Z</time></trkpt><trkpt lat="42.60660175252002" lon="12.00616560934776"><ele>393.6666666666667</ele><time>2026-04-27T16:26:57Z</time></trkpt><trkpt lat="42.60657772175115" lon="12.006072076640182"><ele>392.0</ele><time>2026-04-27T16:26:58Z</time></trkpt><trkpt lat="42.606553040447636" lon="12.005976011921899"><ele>390.33333333333337</ele><time>2026-04-27T16:26:59Z</time></trkpt><trkpt lat="42.606524740542746" lon="12.005871391660055"><ele>388.6666666666667</ele><time>2026-04-27T16:27:00Z</time></trkpt><trkpt lat="42.60649640614627" lon="12.005767822065962"><ele>387.0</ele><time>2026-04-27T16:27:01Z</time></trkpt><trkpt lat="42.60646878275549" lon="12.005666903518225"><ele>385.6666666666667</ele><time>2026-04-27T16:27:02Z</time></trkpt><trkpt lat="42.606440471990126" lon="12.005568612452349"><ele>384.3333333333333</ele><time>2026-04-27T16:27:03Z</time></trkpt><trkpt lat="42.60641049179108" lon="12.005464525370908"><ele>383.0</ele><time>2026-04-27T16:27:04Z</time></trkpt><trkpt lat="42.60638405406016" lon="12.005372737229902"><ele>381.66666666666663</ele><time>2026-04-27T16:27:05Z</time></trkpt><trkpt lat="42.60634612296897" lon="12.005290802331357"><ele>380.3333333333333</ele><time>2026-04-27T16:27:06Z</time></trkpt><trkpt lat="42.60632194173466" lon="12.005133895898727"><ele>379.0</ele><time>2026-04-27T16:27:08Z</time></trkpt><trkpt lat="42.606302525461" lon="12.005013796733756"><ele>379.00000000000006</ele><time>2026-04-27T16:27:10Z</time></trkpt><trkpt lat="42.6062408078108" lon="12.004985338375414"><ele>379.0</ele><time>2026-04-27T16:27:20Z</time></trkpt><trkpt lat="42.606291008699614" lon="12.00505473532077"><ele>379.0</ele><time>2026-04-27T16:31:03Z</time></trkpt><trkpt lat="42.606305442406736" lon="12.005139124770691"><ele>379.0</ele><time>2026-04-27T16:31:12Z</time></trkpt><trkpt lat="42.60628606688522" lon="12.00505383334784"><ele>379.0</ele><time>2026-04-27T16:32:07Z</time></trkpt><trkpt lat="42.60627287421917" lon="12.004967207047484"><ele>379.00000000000006</ele><time>2026-04-27T16:32:13Z</time></trkpt><trkpt lat="42.606208205024025" lon="12.004863810756687"><ele>379.0</ele><time>2026-04-27T16:32:33Z</time></trkpt><trkpt lat="42.60616452450965" lon="12.004766766194834"><ele>380.2</ele><time>2026-04-27T16:32:35Z</time></trkpt><trkpt lat="42.606123665311806" lon="12.004659801822637"><ele>381.4</ele><time>2026-04-27T16:32:37Z</time></trkpt><trkpt lat="42.60608331167259" lon="12.004538232167896"><ele>382.6</ele><time>2026-04-27T16:32:39Z</time></trkpt><trkpt lat="42.60609300099991" lon="12.004376329711205"><ele>383.8</ele><time>2026-04-27T16:32:41Z</time></trkpt><trkpt lat="42.60604897182594" lon="12.00422169010163"><ele>385.0</ele><time>2026-04-27T16:32:43Z</time></trkpt><trkpt lat="42.60600842537834" lon="12.004077398827244"><ele>385.00000000000006</ele><time>2026-04-27T16:32:45Z</time></trkpt><trkpt lat="42.60598296476744" lon="12.00398530315823"><ele>385.0</ele><time>2026-04-27T16:32:49Z</time></trkpt><trkpt lat="42.60595878902458" lon="12.003896904277692"><ele>385.0</ele><time>2026-04-27T16:33:54Z</time></trkpt><trkpt lat="42.605911565749814" lon="12.003780007049716"><ele>385.0</ele><time>2026-04-27T16:33:59Z</time></trkpt><trkpt lat="42.60589076540885" lon="12.00368798275383"><ele>385.00000000000006</ele><time>2026-04-27T16:34:03Z</time></trkpt><trkpt lat="42.605872285098684" lon="12.00359448891576"><ele>385.0</ele><time>2026-04-27T16:34:05Z</time></trkpt><trkpt lat="42.60585685315463" lon="12.003503434990108"><ele>385.00000000000006</ele><time>2026-04-27T16:34:06Z</time></trkpt><trkpt lat="42.60583254789757" lon="12.003359431320986"><ele>385.0</ele><time>2026-04-27T16:34:08Z</time></trkpt><trkpt lat="42.60581593728873" lon="12.003270376631109"><ele>385.0</ele><time>2026-04-27T16:34:09Z</time></trkpt><trkpt lat="42.605799889227626" lon="12.003182767306264"><ele>385.0</ele><time>2026-04-27T16:34:10Z</time></trkpt><trkpt lat="42.60579298073694" lon="12.003087146818125"><ele>385.00000000000006</ele><time>2026-04-27T16:34:11Z</time></trkpt><trkpt lat="42.605809869585514" lon="12.00299402431705"><ele>385.0</ele><time>2026-04-27T16:34:12Z</time></trkpt><trkpt lat="42.60581588192173" lon="12.002902967270881"><ele>384.1666666666667</ele><time>2026-04-27T16:34:13Z</time></trkpt><trkpt lat="42.60581803952992" lon="12.002812307456848"><ele>383.33333333333337</ele><time>2026-04-27T16:34:14Z</time></trkpt><trkpt lat="42.60580056004075" lon="12.002707319409149"><ele>382.5</ele><time>2026-04-27T16:34:15Z</time></trkpt><trkpt lat="42.605806908316126" lon="12.00259718931692"><ele>381.6666666666667</ele><time>2026-04-27T16:34:16Z</time></trkpt><trkpt lat="42.605813626188365" lon="12.002487369988232"><ele>380.83333333333337</ele><time>2026-04-27T16:34:17Z</time></trkpt><trkpt lat="42.60580999423978" lon="12.002376604967495"><ele>380.0</ele><time>2026-04-27T16:34:18Z</time></trkpt><trkpt lat="42.60580376396307" lon="12.002247690471677"><ele>379.6666666666667</ele><time>2026-04-27T16:34:19Z</time></trkpt><trkpt lat="42.60579962686153" lon="12.002131451320052"><ele>379.33333333333337</ele><time>2026-04-27T16:34:20Z</time></trkpt><trkpt lat="42.60578672348703" lon="12.002025508959637"><ele>379.0</ele><time>2026-04-27T16:34:21Z</time></trkpt><trkpt lat="42.605769963538776" lon="12.00191225367625"><ele>378.6666666666667</ele><time>2026-04-27T16:34:22Z</time></trkpt><trkpt lat="42.605751173224185" lon="12.00177773257925"><ele>378.3333333333333</ele><time>2026-04-27T16:34:23Z</time></trkpt><trkpt lat="42.60573789000708" lon="12.001665644766055"><ele>378.0</ele><time>2026-04-27T16:34:24Z</time></trkpt><trkpt lat="42.60572119899952" lon="12.00154527302325"><ele>376.59999999999997</ele><time>2026-04-27T16:34:26Z</time></trkpt><trkpt lat="42.60576357708984" lon="12.001467986224364"><ele>375.2</ele><time>2026-04-27T16:34:28Z</time></trkpt><trkpt lat="42.60586725579287" lon="12.001396675562146"><ele>373.8</ele><time>2026-04-27T16:34:30Z</time></trkpt><trkpt lat="42.6059126922137" lon="12.00126378804349"><ele>372.4</ele><time>2026-04-27T16:34:32Z</time></trkpt><trkpt lat="42.605911738237715" lon="12.00117787330007"><ele>371.0</ele><time>2026-04-27T16:34:33Z</time></trkpt><trkpt lat="42.6058892585429" lon="12.00102998996552"><ele>371.0</ele><time>2026-04-27T16:34:35Z</time></trkpt><trkpt lat="42.605887448683255" lon="12.000903985308122"><ele>371.0</ele><time>2026-04-27T16:34:37Z</time></trkpt><trkpt lat="42.605908786604736" lon="12.000779278630883"><ele>371.0</ele><time>2026-04-27T16:34:40Z</time></trkpt><trkpt lat="42.60599089546175" lon="12.000695860282065"><ele>371.0</ele><time>2026-04-27T16:34:42Z</time></trkpt><trkpt lat="42.60609493066478" lon="12.000691240436767"><ele>371.0</ele><time>2026-04-27T16:34:44Z</time></trkpt><trkpt lat="42.60617984264381" lon="12.000697887278347"><ele>367.33333333333337</ele><time>2026-04-27T16:34:46Z</time></trkpt><trkpt lat="42.60627179212157" lon="12.000714704413028"><ele>363.6666666666667</ele><time>2026-04-27T16:35:26Z</time></trkpt><trkpt lat="42.60636599039801" lon="12.00071768414443"><ele>360.0</ele><time>2026-04-27T16:35:28Z</time></trkpt><trkpt lat="42.60644959243268" lon="12.000692174308146"><ele>356.3333333333333</ele><time>2026-04-27T16:35:30Z</time></trkpt><trkpt lat="42.60650657263273" lon="12.000621314903182"><ele>352.66666666666663</ele><time>2026-04-27T16:35:32Z</time></trkpt><trkpt lat="42.60652061427586" lon="12.000511357963907"><ele>349.0</ele><time>2026-04-27T16:35:34Z</time></trkpt><trkpt lat="42.60652272731882" lon="12.000424017557808"><ele>349.0</ele><time>2026-04-27T16:35:35Z</time></trkpt><trkpt lat="42.6065259803986" lon="12.000336682536785"><ele>349.0</ele><time>2026-04-27T16:35:36Z</time></trkpt><trkpt lat="42.60657886435346" lon="12.000244319139552"><ele>349.0</ele><time>2026-04-27T16:35:37Z</time></trkpt><trkpt lat="42.60657894682527" lon="12.000076781708762"><ele>349.0</ele><time>2026-04-27T16:35:39Z</time></trkpt><trkpt lat="42.60657779707629" lon="11.999984256947853"><ele>349.0</ele><time>2026-04-27T16:35:40Z</time></trkpt><trkpt lat="42.60657283931673" lon="11.999810419503701"><ele>349.0</ele><time>2026-04-27T16:35:42Z</time></trkpt><trkpt lat="42.60656619258725" lon="11.999648804467983"><ele>349.0</ele><time>2026-04-27T16:35:44Z</time></trkpt><trkpt lat="42.606557086976224" lon="11.999493934356268"><ele>349.0</ele><time>2026-04-27T16:35:46Z</time></trkpt><trkpt lat="42.60654684485483" lon="11.999342101861023"><ele>349.0</ele><time>2026-04-27T16:35:48Z</time></trkpt><trkpt lat="42.60650356392089" lon="11.999263153786984"><ele>349.0</ele><time>2026-04-27T16:35:49Z</time></trkpt><trkpt lat="42.60647945449336" lon="11.999172555973503"><ele>349.2857142857143</ele><time>2026-04-27T16:35:50Z</time></trkpt><trkpt lat="42.60649807724498" lon="11.999075804573339"><ele>349.57142857142856</ele><time>2026-04-27T16:35:51Z</time></trkpt><trkpt lat="42.60646095082132" lon="11.998984744781717"><ele>349.8571428571429</ele><time>2026-04-27T16:35:52Z</time></trkpt><trkpt lat="42.60638859511527" lon="11.99890810667662"><ele>350.1428571428571</ele><time>2026-04-27T16:35:53Z</time></trkpt><trkpt lat="42.60631559878385" lon="11.998893744311525"><ele>350.42857142857144</ele><time>2026-04-27T16:35:54Z</time></trkpt><trkpt lat="42.6062580992286" lon="11.998856744328958"><ele>350.7142857142857</ele><time>2026-04-27T16:35:55Z</time></trkpt><trkpt lat="42.606200243241794" lon="11.998806950121427"><ele>351.0</ele><time>2026-04-27T16:35:56Z</time></trkpt><trkpt lat="42.60614846887066" lon="11.99874649190194"><ele>351.0</ele><time>2026-04-27T16:35:57Z</time></trkpt><trkpt lat="42.60607386655457" lon="11.998720089376455"><ele>351.0</ele><time>2026-04-27T16:35:58Z</time></trkpt><trkpt lat="42.60600013956172" lon="11.99871165835854"><ele>351.0</ele><time>2026-04-27T16:35:59Z</time></trkpt><trkpt lat="42.60591917532073" lon="11.998730194766182"><ele>351.0</ele><time>2026-04-27T16:36:00Z</time></trkpt><trkpt lat="42.605840799115406" lon="11.998738233693787"><ele>351.0</ele><time>2026-04-27T16:36:01Z</time></trkpt><trkpt lat="42.60575842730871" lon="11.998753547386842"><ele>351.0</ele><time>2026-04-27T16:36:02Z</time></trkpt><trkpt lat="42.605692817482634" lon="11.998766459209277"><ele>351.0</ele><time>2026-04-27T16:36:03Z</time></trkpt><trkpt lat="42.60560435655163" lon="11.998746956498122"><ele>351.0</ele><time>2026-04-27T16:36:05Z</time></trkpt><trkpt lat="42.60559576639765" lon="11.998636298436471"><ele>351.0</ele><time>2026-04-27T16:36:07Z</time></trkpt><trkpt lat="42.60560704626687" lon="11.998510274816063"><ele>351.0</ele><time>2026-04-27T16:36:10Z</time></trkpt><trkpt lat="42.60561815301679" lon="11.998385925795349"><ele>351.0</ele><time>2026-04-27T16:36:12Z</time></trkpt><trkpt lat="42.605606614527915" lon="11.998229808151331"><ele>348.8333333333333</ele><time>2026-04-27T16:36:14Z</time></trkpt><trkpt lat="42.60554623303761" lon="11.998064370132836"><ele>346.6666666666667</ele><time>2026-04-27T16:36:16Z</time></trkpt><trkpt lat="42.60550526417525" lon="11.997979685571543"><ele>344.5</ele><time>2026-04-27T16:36:17Z</time></trkpt><trkpt lat="42.60546440451745" lon="11.997894097470121"><ele>342.33333333333337</ele><time>2026-04-27T16:36:18Z</time></trkpt><trkpt lat="42.605413397340946" lon="11.997829829763125"><ele>340.1666666666667</ele><time>2026-04-27T16:36:19Z</time></trkpt><trkpt lat="42.60537992838222" lon="11.997739077610413"><ele>338.0</ele><time>2026-04-27T16:36:20Z</time></trkpt><trkpt lat="42.605325989808186" lon="11.997678730487015"><ele>337.59999999999997</ele><time>2026-04-27T16:36:21Z</time></trkpt><trkpt lat="42.605298163044" lon="11.997596826433735"><ele>337.2</ele><time>2026-04-27T16:36:22Z</time></trkpt><trkpt lat="42.60522482276751" lon="11.997458348363857"><ele>336.8</ele><time>2026-04-27T16:36:24Z</time></trkpt><trkpt lat="42.60519111763801" lon="11.997385636008694"><ele>336.4</ele><time>2026-04-27T16:36:25Z</time></trkpt><trkpt lat="42.60513530629215" lon="11.99726563962852"><ele>336.0</ele><time>2026-04-27T16:36:27Z</time></trkpt><trkpt lat="42.60506751340785" lon="11.997141306112834"><ele>333.6</ele><time>2026-04-27T16:36:29Z</time></trkpt><trkpt lat="42.60497452693263" lon="11.99704257102676"><ele>331.20000000000005</ele><time>2026-04-27T16:36:31Z</time></trkpt><trkpt lat="42.604909781350386" lon="11.997006434996026"><ele>328.79999999999995</ele><time>2026-04-27T16:36:32Z</time></trkpt><trkpt lat="42.604800650098845" lon="11.997011907757678"><ele>326.4</ele><time>2026-04-27T16:36:34Z</time></trkpt><trkpt lat="42.60473498541784" lon="11.997072650378229"><ele>324.0</ele><time>2026-04-27T16:36:36Z</time></trkpt><trkpt lat="42.604656190535216" lon="11.99712216352414"><ele>324.0</ele><time>2026-04-27T16:36:38Z</time></trkpt><trkpt lat="42.60456712892711" lon="11.99712995189328"><ele>324.0</ele><time>2026-04-27T16:36:40Z</time></trkpt><trkpt lat="42.60449635989154" lon="11.997068863165913"><ele>324.0</ele><time>2026-04-27T16:36:42Z</time></trkpt><trkpt lat="42.60443803747712" lon="11.996984296699232"><ele>324.0</ele><time>2026-04-27T16:36:44Z</time></trkpt><trkpt lat="42.60436061946682" lon="11.996896254915569"><ele>324.0</ele><time>2026-04-27T16:36:46Z</time></trkpt><trkpt lat="42.604312246921616" lon="11.996835371998749"><ele>324.0</ele><time>2026-04-27T16:36:48Z</time></trkpt><trkpt lat="42.60428556803113" lon="11.996742452683888"><ele>322.6666666666667</ele><time>2026-04-27T16:36:51Z</time></trkpt><trkpt lat="42.60435939250366" lon="11.996635288244304"><ele>321.3333333333333</ele><time>2026-04-27T16:36:53Z</time></trkpt><trkpt lat="42.60443031170143" lon="11.996595048669569"><ele>320.0</ele><time>2026-04-27T16:36:54Z</time></trkpt><trkpt lat="42.604494118092084" lon="11.996536324852787"><ele>318.66666666666663</ele><time>2026-04-27T16:36:55Z</time></trkpt><trkpt lat="42.60457371378239" lon="11.996487525329957"><ele>317.3333333333333</ele><time>2026-04-27T16:36:56Z</time></trkpt><trkpt lat="42.60466416334494" lon="11.996445007527036"><ele>316.0</ele><time>2026-04-27T16:36:57Z</time></trkpt><trkpt lat="42.60476601179664" lon="11.996410981619675"><ele>316.0</ele><time>2026-04-27T16:36:58Z</time></trkpt><trkpt lat="42.604875798442826" lon="11.996404648383265"><ele>316.0</ele><time>2026-04-27T16:36:59Z</time></trkpt><trkpt lat="42.60498950405096" lon="11.996414111195556"><ele>316.0</ele><time>2026-04-27T16:37:00Z</time></trkpt><trkpt lat="42.60510894819358" lon="11.996425418365197"><ele>316.0</ele><time>2026-04-27T16:37:01Z</time></trkpt><trkpt lat="42.605232971540644" lon="11.996437297041192"><ele>315.25</ele><time>2026-04-27T16:37:02Z</time></trkpt><trkpt lat="42.60535953321584" lon="11.996448195368435"><ele>314.5</ele><time>2026-04-27T16:37:03Z</time></trkpt><trkpt lat="42.605491867973974" lon="11.996458322736592"><ele>313.75</ele><time>2026-04-27T16:37:04Z</time></trkpt><trkpt lat="42.605628554198404" lon="11.996469096225777"><ele>313.0</ele><time>2026-04-27T16:37:05Z</time></trkpt><trkpt lat="42.605769346684234" lon="11.996484172751982"><ele>313.0</ele><time>2026-04-27T16:37:06Z</time></trkpt><trkpt lat="42.605916060531925" lon="11.996505468336704"><ele>313.0</ele><time>2026-04-27T16:37:07Z</time></trkpt><trkpt lat="42.60606837331954" lon="11.9965206757861"><ele>313.0</ele><time>2026-04-27T16:37:08Z</time></trkpt><trkpt lat="42.60622321859655" lon="11.996529517167952"><ele>312.66666666666663</ele><time>2026-04-27T16:37:09Z</time></trkpt><trkpt lat="42.606379552929525" lon="11.996540286143716"><ele>312.3333333333333</ele><time>2026-04-27T16:37:10Z</time></trkpt><trkpt lat="42.60653785225326" lon="11.996554211571771"><ele>312.0</ele><time>2026-04-27T16:37:11Z</time></trkpt><trkpt lat="42.60669319354308" lon="11.996568191693445"><ele>312.0</ele><time>2026-04-27T16:37:12Z</time></trkpt><trkpt lat="42.606849295459746" lon="11.99658442607045"><ele>312.0</ele><time>2026-04-27T16:37:13Z</time></trkpt><trkpt lat="42.60700785422557" lon="11.996601687740881"><ele>312.0</ele><time>2026-04-27T16:37:14Z</time></trkpt><trkpt lat="42.60716755345058" lon="11.996616595721074"><ele>312.0</ele><time>2026-04-27T16:37:15Z</time></trkpt><trkpt lat="42.607329481560875" lon="11.996629814808559"><ele>312.0</ele><time>2026-04-27T16:37:16Z</time></trkpt><trkpt lat="42.607492066051684" lon="11.996641441378197"><ele>312.0</ele><time>2026-04-27T16:37:17Z</time></trkpt><trkpt lat="42.6076575653792" lon="11.99665623329997"><ele>313.3333333333333</ele><time>2026-04-27T16:37:18Z</time></trkpt><trkpt lat="42.607827606321614" lon="11.996670136703997"><ele>314.66666666666663</ele><time>2026-04-27T16:37:19Z</time></trkpt><trkpt lat="42.6079995742996" lon="11.996682496289257"><ele>316.0</ele><time>2026-04-27T16:37:20Z</time></trkpt><trkpt lat="42.608170768818724" lon="11.996699139531904"><ele>316.0</ele><time>2026-04-27T16:37:21Z</time></trkpt><trkpt lat="42.60833267476058" lon="11.99671542683712"><ele>316.0</ele><time>2026-04-27T16:37:22Z</time></trkpt><trkpt lat="42.60848515698724" lon="11.996731474713524"><ele>316.0</ele><time>2026-04-27T16:37:23Z</time></trkpt><trkpt lat="42.6086304218123" lon="11.996746474642155"><ele>317.66666666666663</ele><time>2026-04-27T16:37:24Z</time></trkpt><trkpt lat="42.60877975116882" lon="11.996765439306685"><ele>319.3333333333333</ele><time>2026-04-27T16:37:25Z</time></trkpt><trkpt lat="42.608937622719594" lon="11.996782199077526"><ele>321.0</ele><time>2026-04-27T16:37:26Z</time></trkpt><trkpt lat="42.60909847770725" lon="11.99680052791903"><ele>321.0</ele><time>2026-04-27T16:37:27Z</time></trkpt><trkpt lat="42.60926254313377" lon="11.996813095934444"><ele>321.0</ele><time>2026-04-27T16:37:28Z</time></trkpt><trkpt lat="42.60943318080486" lon="11.996819176700084"><ele>321.0</ele><time>2026-04-27T16:37:29Z</time></trkpt><trkpt lat="42.60960832260879" lon="11.996816456966657"><ele>325.3333333333333</ele><time>2026-04-27T16:37:30Z</time></trkpt><trkpt lat="42.60978894642075" lon="11.996811780797334"><ele>329.66666666666663</ele><time>2026-04-27T16:37:31Z</time></trkpt><trkpt lat="42.6099755285189" lon="11.996801161584404"><ele>334.0</ele><time>2026-04-27T16:37:32Z</time></trkpt><trkpt lat="42.61015572807492" lon="11.996797994975333"><ele>334.0</ele><time>2026-04-27T16:37:33Z</time></trkpt><trkpt lat="42.610323377085486" lon="11.996792709353139"><ele>334.0</ele><time>2026-04-27T16:37:34Z</time></trkpt><trkpt lat="42.610484745251775" lon="11.99678693342466"><ele>334.0</ele><time>2026-04-27T16:37:35Z</time></trkpt><trkpt lat="42.61063884663447" lon="11.996781864239214"><ele>333.0</ele><time>2026-04-27T16:37:36Z</time></trkpt><trkpt lat="42.61078147627737" lon="11.996785644180434"><ele>332.0</ele><time>2026-04-27T16:37:37Z</time></trkpt><trkpt lat="42.61093166059929" lon="11.996813506171907"><ele>331.0</ele><time>2026-04-27T16:37:38Z</time></trkpt><trkpt lat="42.61108927743576" lon="11.996903150804426"><ele>328.3333333333333</ele><time>2026-04-27T16:37:39Z</time></trkpt><trkpt lat="42.611269890639065" lon="11.996978156018784"><ele>325.6666666666667</ele><time>2026-04-27T16:37:40Z</time></trkpt><trkpt lat="42.61146366221588" lon="11.997078008181665"><ele>323.0</ele><time>2026-04-27T16:37:41Z</time></trkpt><trkpt lat="42.61165931269134" lon="11.997182871020906"><ele>323.0</ele><time>2026-04-27T16:37:42Z</time></trkpt><trkpt lat="42.611838178065916" lon="11.997284604115368"><ele>323.0</ele><time>2026-04-27T16:37:43Z</time></trkpt><trkpt lat="42.61200730619783" lon="11.99737222866472"><ele>323.0</ele><time>2026-04-27T16:37:44Z</time></trkpt><trkpt lat="42.612176466976614" lon="11.99745261080555"><ele>329.0</ele><time>2026-04-27T16:37:45Z</time></trkpt><trkpt lat="42.61234630929758" lon="11.997521837261166"><ele>335.0</ele><time>2026-04-27T16:37:46Z</time></trkpt><trkpt lat="42.61251650049237" lon="11.99756567892892"><ele>341.0</ele><time>2026-04-27T16:37:47Z</time></trkpt><trkpt lat="42.61269378029476" lon="11.997580827415312"><ele>340.6666666666667</ele><time>2026-04-27T16:37:48Z</time></trkpt><trkpt lat="42.61287513908297" lon="11.997576760095622"><ele>340.3333333333333</ele><time>2026-04-27T16:37:49Z</time></trkpt><trkpt lat="42.613055922922435" lon="11.997549834520324"><ele>340.0</ele><time>2026-04-27T16:37:50Z</time></trkpt><trkpt lat="42.61324252471643" lon="11.997493457871812"><ele>334.3333333333333</ele><time>2026-04-27T16:37:51Z</time></trkpt><trkpt lat="42.613426872331694" lon="11.997440400050328"><ele>328.6666666666667</ele><time>2026-04-27T16:37:52Z</time></trkpt><trkpt lat="42.61361116741981" lon="11.99736853989123"><ele>323.0</ele><time>2026-04-27T16:37:53Z</time></trkpt><trkpt lat="42.61379493138716" lon="11.997282132116721"><ele>323.0</ele><time>2026-04-27T16:37:54Z</time></trkpt><trkpt lat="42.6139820297695" lon="11.997182500635184"><ele>323.0</ele><time>2026-04-27T16:37:55Z</time></trkpt><trkpt lat="42.614167364320714" lon="11.997075230507448"><ele>323.0</ele><time>2026-04-27T16:37:56Z</time></trkpt><trkpt lat="42.61434798969814" lon="11.99696741026714"><ele>325.33333333333337</ele><time>2026-04-27T16:37:57Z</time></trkpt><trkpt lat="42.614522651751024" lon="11.996855460269588"><ele>327.6666666666667</ele><time>2026-04-27T16:37:58Z</time></trkpt><trkpt lat="42.614686094712184" lon="11.996738320475538"><ele>330.0</ele><time>2026-04-27T16:37:59Z</time></trkpt><trkpt lat="42.61484645815884" lon="11.996606910946062"><ele>325.0</ele><time>2026-04-27T16:38:00Z</time></trkpt><trkpt lat="42.61499502245286" lon="11.996457268515732"><ele>320.0</ele><time>2026-04-27T16:38:01Z</time></trkpt><trkpt lat="42.61512594876628" lon="11.996296847731202"><ele>315.0</ele><time>2026-04-27T16:38:02Z</time></trkpt><trkpt lat="42.61524636788822" lon="11.99613852738213"><ele>316.5</ele><time>2026-04-27T16:38:03Z</time></trkpt><trkpt lat="42.61535144053382" lon="11.996006719543416"><ele>318.0</ele><time>2026-04-27T16:38:04Z</time></trkpt><trkpt lat="42.615456900178444" lon="11.995910517669705"><ele>319.5</ele><time>2026-04-27T16:38:05Z</time></trkpt><trkpt lat="42.61557238223905" lon="11.995854078545738"><ele>321.0</ele><time>2026-04-27T16:38:06Z</time></trkpt><trkpt lat="42.615700576971115" lon="11.99585524870028"><ele>321.0</ele><time>2026-04-27T16:38:07Z</time></trkpt><trkpt lat="42.61583855163616" lon="11.995916144119443"><ele>321.0</ele><time>2026-04-27T16:38:08Z</time></trkpt><trkpt lat="42.615948030741706" lon="11.996049002529585"><ele>321.0</ele><time>2026-04-27T16:38:09Z</time></trkpt><trkpt lat="42.61608882984449" lon="11.996179609816277"><ele>318.3333333333333</ele><time>2026-04-27T16:38:10Z</time></trkpt><trkpt lat="42.61625313569701" lon="11.996291201804436"><ele>315.66666666666663</ele><time>2026-04-27T16:38:11Z</time></trkpt><trkpt lat="42.616420261539936" lon="11.99641686226758"><ele>313.0</ele><time>2026-04-27T16:38:12Z</time></trkpt><trkpt lat="42.616599975334786" lon="11.996528745101847"><ele>313.0</ele><time>2026-04-27T16:38:13Z</time></trkpt><trkpt lat="42.61678486900914" lon="11.996626262519712"><ele>313.0</ele><time>2026-04-27T16:38:14Z</time></trkpt><trkpt lat="42.61698869113726" lon="11.99670816293519"><ele>313.0</ele><time>2026-04-27T16:38:15Z</time></trkpt><trkpt lat="42.61721257468279" lon="11.996764550668681"><ele>315.0</ele><time>2026-04-27T16:38:16Z</time></trkpt><trkpt lat="42.6174500889706" lon="11.996813191024021"><ele>317.0</ele><time>2026-04-27T16:38:17Z</time></trkpt><trkpt lat="42.61769114114214" lon="11.996871371809265"><ele>316.5</ele><time>2026-04-27T16:38:18Z</time></trkpt><trkpt lat="42.61793314513536" lon="11.996939026099605"><ele>316.0</ele><time>2026-04-27T16:38:19Z</time></trkpt><trkpt lat="42.61817052536291" lon="11.99700739860914"><ele>316.0</ele><time>2026-04-27T16:38:20Z</time></trkpt><trkpt lat="42.61839510995118" lon="11.997067153080572"><ele>316.0</ele><time>2026-04-27T16:38:21Z</time></trkpt><trkpt lat="42.618605170249" lon="11.997119325661993"><ele>316.0</ele><time>2026-04-27T16:38:22Z</time></trkpt><trkpt lat="42.61878733951922" lon="11.997192027097405"><ele>316.0</ele><time>2026-04-27T16:38:23Z</time></trkpt><trkpt lat="42.618958333428196" lon="11.997231436884697"><ele>316.0</ele><time>2026-04-27T16:38:24Z</time></trkpt><trkpt lat="42.619115971350375" lon="11.997337993320011"><ele>316.0</ele><time>2026-04-27T16:38:25Z</time></trkpt><trkpt lat="42.619280048724335" lon="11.997459627773068"><ele>318.3333333333333</ele><time>2026-04-27T16:38:26Z</time></trkpt><trkpt lat="42.619448908725474" lon="11.997603943743533"><ele>320.6666666666667</ele><time>2026-04-27T16:38:27Z</time></trkpt><trkpt lat="42.61962898923576" lon="11.997741289425242"><ele>323.0</ele><time>2026-04-27T16:38:28Z</time></trkpt><trkpt lat="42.61980067117185" lon="11.997885340193546"><ele>323.0</ele><time>2026-04-27T16:38:29Z</time></trkpt><trkpt lat="42.61998062504132" lon="11.997993264779952"><ele>323.0</ele><time>2026-04-27T16:38:30Z</time></trkpt><trkpt lat="42.62014543741166" lon="11.99806385768544"><ele>323.0</ele><time>2026-04-27T16:38:31Z</time></trkpt><trkpt lat="42.62029972902718" lon="11.998092055108733"><ele>321.6666666666667</ele><time>2026-04-27T16:38:32Z</time></trkpt><trkpt lat="42.62047619746725" lon="11.998097729582549"><ele>320.3333333333333</ele><time>2026-04-27T16:38:33Z</time></trkpt><trkpt lat="42.6206748858042" lon="11.998102751871444"><ele>319.0</ele><time>2026-04-27T16:38:34Z</time></trkpt><trkpt lat="42.620890359008676" lon="11.998116039160173"><ele>319.0</ele><time>2026-04-27T16:38:35Z</time></trkpt><trkpt lat="42.621109182323394" lon="11.998138724950094"><ele>319.0</ele><time>2026-04-27T16:38:36Z</time></trkpt><trkpt lat="42.62133094025286" lon="11.998157742268917"><ele>319.0</ele><time>2026-04-27T16:38:37Z</time></trkpt><trkpt lat="42.62155658214507" lon="11.998175989810377"><ele>318.66666666666663</ele><time>2026-04-27T16:38:38Z</time></trkpt><trkpt lat="42.62177603845868" lon="11.998197447953288"><ele>318.3333333333333</ele><time>2026-04-27T16:38:39Z</time></trkpt><trkpt lat="42.62197172947355" lon="11.99821730318728"><ele>318.0</ele><time>2026-04-27T16:38:40Z</time></trkpt><trkpt lat="42.622145599994866" lon="11.998236742321232"><ele>317.6666666666667</ele><time>2026-04-27T16:38:41Z</time></trkpt><trkpt lat="42.62230543740753" lon="11.998257275704326"><ele>317.33333333333337</ele><time>2026-04-27T16:38:42Z</time></trkpt><trkpt lat="42.62244471120144" lon="11.998325196774944"><ele>317.0</ele><time>2026-04-27T16:38:43Z</time></trkpt><trkpt lat="42.62257412387055" lon="11.998412811004956"><ele>317.6666666666667</ele><time>2026-04-27T16:38:44Z</time></trkpt><trkpt lat="42.62269498985813" lon="11.998538092851124"><ele>318.3333333333333</ele><time>2026-04-27T16:38:45Z</time></trkpt><trkpt lat="42.622810451306385" lon="11.998702901963753"><ele>319.0</ele><time>2026-04-27T16:38:46Z</time></trkpt><trkpt lat="42.62293601484467" lon="11.998872156172702"><ele>319.0</ele><time>2026-04-27T16:38:47Z</time></trkpt><trkpt lat="42.6230788343587" lon="11.999022380861781"><ele>319.0</ele><time>2026-04-27T16:38:48Z</time></trkpt><trkpt lat="42.62321100582095" lon="11.999153252778042"><ele>319.0</ele><time>2026-04-27T16:38:49Z</time></trkpt><trkpt lat="42.62333151994498" lon="11.999237208273541"><ele>320.16666666666663</ele><time>2026-04-27T16:38:50Z</time></trkpt><trkpt lat="42.62342369033512" lon="11.999293273707224"><ele>321.3333333333333</ele><time>2026-04-27T16:38:51Z</time></trkpt><trkpt lat="42.62351594747762" lon="11.999353988352444"><ele>322.5</ele><time>2026-04-27T16:38:53Z</time></trkpt><trkpt lat="42.623575358587445" lon="11.999384525030536"><ele>323.6666666666667</ele><time>2026-04-27T16:42:20Z</time></trkpt><trkpt lat="42.62353472721951" lon="11.999268050996154"><ele>324.83333333333337</ele><time>2026-04-27T16:42:23Z</time></trkpt><trkpt lat="42.62345683231066" lon="11.999240188552008"><ele>326.0</ele><time>2026-04-27T16:42:24Z</time></trkpt><trkpt lat="42.62337267395323" lon="11.999204805208594"><ele>324.25</ele><time>2026-04-27T16:42:25Z</time></trkpt><trkpt lat="42.623283177426046" lon="11.999142992965723"><ele>322.5</ele><time>2026-04-27T16:42:26Z</time></trkpt><trkpt lat="42.62316761358885" lon="11.99904460163092"><ele>320.75</ele><time>2026-04-27T16:42:27Z</time></trkpt><trkpt lat="42.62304413809429" lon="11.998926433818164"><ele>319.0</ele><time>2026-04-27T16:42:28Z</time></trkpt><trkpt lat="42.622937692260834" lon="11.998801668048069"><ele>319.0</ele><time>2026-04-27T16:42:29Z</time></trkpt><trkpt lat="42.62284754483861" lon="11.998676911813662"><ele>319.0</ele><time>2026-04-27T16:42:30Z</time></trkpt><trkpt lat="42.62276828221836" lon="11.998560697737881"><ele>319.0</ele><time>2026-04-27T16:42:31Z</time></trkpt><trkpt lat="42.62268901090299" lon="11.99845167571549"><ele>319.0</ele><time>2026-04-27T16:42:32Z</time></trkpt><trkpt lat="42.62260887966" lon="11.998360561554925"><ele>318.59999999999997</ele><time>2026-04-27T16:42:33Z</time></trkpt><trkpt lat="42.62251885877891" lon="11.998294029716316"><ele>318.2</ele><time>2026-04-27T16:42:34Z</time></trkpt><trkpt lat="42.622415866163415" lon="11.998250517986222"><ele>317.79999999999995</ele><time>2026-04-27T16:42:35Z</time></trkpt><trkpt lat="42.62230324531037" lon="11.998224672707522"><ele>317.4</ele><time>2026-04-27T16:42:36Z</time></trkpt><trkpt lat="42.622189936370184" lon="11.998204470931375"><ele>317.0</ele><time>2026-04-27T16:42:37Z</time></trkpt><trkpt lat="42.622071483250764" lon="11.998188750225568"><ele>317.2</ele><time>2026-04-27T16:42:38Z</time></trkpt><trkpt lat="42.621958193496" lon="11.998181091904915"><ele>317.4</ele><time>2026-04-27T16:42:39Z</time></trkpt><trkpt lat="42.62184245379231" lon="11.998170675785147"><ele>317.6</ele><time>2026-04-27T16:42:40Z</time></trkpt><trkpt lat="42.621741044409276" lon="11.998155867485133"><ele>317.8</ele><time>2026-04-27T16:42:41Z</time></trkpt><trkpt lat="42.62164717786452" lon="11.998145562881026"><ele>318.0</ele><time>2026-04-27T16:42:42Z</time></trkpt><trkpt lat="42.621567239894105" lon="11.998131749183717"><ele>318.0</ele><time>2026-04-27T16:42:43Z</time></trkpt><trkpt lat="42.62150227948279" lon="11.998119529221077"><ele>318.0</ele><time>2026-04-27T16:42:44Z</time></trkpt><trkpt lat="42.62141837496461" lon="11.998126665965936"><ele>318.0</ele><time>2026-04-27T16:42:46Z</time></trkpt><trkpt lat="42.621435076361564" lon="11.998358799525077"><ele>318.0</ele><time>2026-04-27T16:42:50Z</time></trkpt><trkpt lat="42.621486730219544" lon="11.998480337464892"><ele>318.0</ele><time>2026-04-27T16:42:52Z</time></trkpt><trkpt lat="42.62149871312968" lon="11.998600380043916"><ele>318.8333333333333</ele><time>2026-04-27T16:42:55Z</time></trkpt><trkpt lat="42.62149415110752" lon="11.99870950788788"><ele>319.6666666666667</ele><time>2026-04-27T16:42:57Z</time></trkpt><trkpt lat="42.62150454681429" lon="11.998840441773321"><ele>320.5</ele><time>2026-04-27T16:42:59Z</time></trkpt><trkpt lat="42.62148279807031" lon="11.998982319623815"><ele>321.33333333333337</ele><time>2026-04-27T16:43:01Z</time></trkpt><trkpt lat="42.62149414576764" lon="11.99907087640229"><ele>322.1666666666667</ele><time>2026-04-27T16:43:02Z</time></trkpt><trkpt lat="42.621485388576765" lon="11.999163511341703"><ele>323.0</ele><time>2026-04-27T16:43:03Z</time></trkpt><trkpt lat="42.62147498176679" lon="11.999335451055792"><ele>324.0</ele><time>2026-04-27T16:43:05Z</time></trkpt><trkpt lat="42.621447751321014" lon="11.999504303354913"><ele>325.0</ele><time>2026-04-27T16:43:07Z</time></trkpt><trkpt lat="42.62144205468508" lon="11.999591922846294"><ele>326.0</ele><time>2026-04-27T16:43:08Z</time></trkpt><trkpt lat="42.62145627403418" lon="11.99968317088588"><ele>327.0</ele><time>2026-04-27T16:43:09Z</time></trkpt><trkpt lat="42.62145240194702" lon="11.999770054748558"><ele>328.0</ele><time>2026-04-27T16:43:10Z</time></trkpt><trkpt lat="42.62144843433598" lon="11.999857010081527"><ele>329.0</ele><time>2026-04-27T16:43:11Z</time></trkpt><trkpt lat="42.62144113030492" lon="12.000011903817532"><ele>329.0</ele><time>2026-04-27T16:43:13Z</time></trkpt><trkpt lat="42.62143687453983" lon="12.000141663819115"><ele>329.0</ele><time>2026-04-27T16:43:15Z</time></trkpt><trkpt lat="42.621453804393944" lon="12.00022616007495"><ele>329.0</ele><time>2026-04-27T16:43:19Z</time></trkpt><trkpt lat="42.62144494068713" lon="12.000313859830344"><ele>329.0</ele><time>2026-04-27T16:43:36Z</time></trkpt><trkpt lat="42.62140950534383" lon="12.000222218593395"><ele>329.0</ele><time>2026-04-27T16:46:11Z</time></trkpt><trkpt lat="42.621429219894424" lon="12.000126278222066"><ele>329.0</ele><time>2026-04-27T16:46:15.999Z</time></trkpt><trkpt lat="42.62144348467378" lon="12.00001800851744"><ele>329.0</ele><time>2026-04-27T16:46:17.999Z</time></trkpt><trkpt lat="42.62145038045061" lon="11.999884327372225"><ele>329.0</ele><time>2026-04-27T16:46:19.999Z</time></trkpt><trkpt lat="42.62145895892021" lon="11.999741695263975"><ele>329.0</ele><time>2026-04-27T16:46:21.999Z</time></trkpt><trkpt lat="42.62146896284965" lon="11.999594937112597"><ele>329.0</ele><time>2026-04-27T16:46:23.999Z</time></trkpt><trkpt lat="42.62147603121958" lon="11.999458213217533"><ele>329.0</ele><time>2026-04-27T16:46:25.999Z</time></trkpt><trkpt lat="42.62148073351526" lon="11.999332606634365"><ele>329.0</ele><time>2026-04-27T16:46:27.999Z</time></trkpt><trkpt lat="42.621484426783326" lon="11.999216634698481"><ele>329.0</ele><time>2026-04-27T16:46:29.999Z</time></trkpt><trkpt lat="42.62149716328417" lon="11.999090917386788"><ele>329.0</ele><time>2026-04-27T16:46:31.999Z</time></trkpt><trkpt lat="42.62151233354175" lon="11.998939497070591"><ele>329.0</ele><time>2026-04-27T16:46:33.999Z</time></trkpt><trkpt lat="42.62151379528345" lon="11.998806583306433"><ele>329.0</ele><time>2026-04-27T16:46:35.999Z</time></trkpt><trkpt lat="42.621517323920024" lon="11.998675169636032"><ele>328.14285714285717</ele><time>2026-04-27T16:46:37.999Z</time></trkpt><trkpt lat="42.62152434510965" lon="11.998567602261723"><ele>327.2857142857143</ele><time>2026-04-27T16:46:39.999Z</time></trkpt><trkpt lat="42.62151332563208" lon="11.99848176831906"><ele>326.42857142857144</ele><time>2026-04-27T16:46:41.999Z</time></trkpt><trkpt lat="42.62147229452984" lon="11.998395710275576"><ele>325.57142857142856</ele><time>2026-04-27T16:46:44.999Z</time></trkpt><trkpt lat="42.62142845591598" lon="11.998328349387684"><ele>324.7142857142857</ele><time>2026-04-27T16:46:47.999Z</time></trkpt><trkpt lat="42.62139275254272" lon="11.99824264498453"><ele>323.8571428571429</ele><time>2026-04-27T16:46:50.999Z</time></trkpt><trkpt lat="42.62145075929616" lon="11.99815556214205"><ele>323.0</ele><time>2026-04-27T16:46:56.999Z</time></trkpt><trkpt lat="42.62156605800603" lon="11.998177932447769"><ele>322.1666666666667</ele><time>2026-04-27T16:46:58.999Z</time></trkpt><trkpt lat="42.621630335622314" lon="11.998180248973634"><ele>321.33333333333337</ele><time>2026-04-27T16:46:59.999Z</time></trkpt><trkpt lat="42.62170762177037" lon="11.99820584130242"><ele>320.5</ele><time>2026-04-27T16:47:00.999Z</time></trkpt><trkpt lat="42.62179910609235" lon="11.998193888117106"><ele>319.6666666666667</ele><time>2026-04-27T16:47:01.999Z</time></trkpt><trkpt lat="42.621888802440004" lon="11.998204459016893"><ele>318.8333333333333</ele><time>2026-04-27T16:47:02.999Z</time></trkpt><trkpt lat="42.6219833337749" lon="11.998213949891108"><ele>318.0</ele><time>2026-04-27T16:47:03.999Z</time></trkpt><trkpt lat="42.62208605581561" lon="11.998227386007626"><ele>317.75</ele><time>2026-04-27T16:47:04.999Z</time></trkpt><trkpt lat="42.6221919965085" lon="11.998245435176052"><ele>317.5</ele><time>2026-04-27T16:47:05.999Z</time></trkpt><trkpt lat="42.622297894439484" lon="11.998266958635584"><ele>317.25</ele><time>2026-04-27T16:47:06.999Z</time></trkpt><trkpt lat="42.622413691929964" lon="11.998301092416261"><ele>317.0</ele><time>2026-04-27T16:47:07.999Z</time></trkpt><trkpt lat="42.62252400103797" lon="11.998364088997466"><ele>317.5</ele><time>2026-04-27T16:47:08.999Z</time></trkpt><trkpt lat="42.6226302145533" lon="11.998448741903363"><ele>318.0</ele><time>2026-04-27T16:47:09.999Z</time></trkpt><trkpt lat="42.62272268400809" lon="11.998578202272864"><ele>318.5</ele><time>2026-04-27T16:47:10.999Z</time></trkpt><trkpt lat="42.622830214279986" lon="11.998706114700978"><ele>319.0</ele><time>2026-04-27T16:47:11.999Z</time></trkpt><trkpt lat="42.622926248075274" lon="11.998835173755309"><ele>319.0</ele><time>2026-04-27T16:47:12.999Z</time></trkpt><trkpt lat="42.623027864630636" lon="11.998961304527121"><ele>319.0</ele><time>2026-04-27T16:47:13.999Z</time></trkpt><trkpt lat="42.623136843871926" lon="11.99907304233174"><ele>319.0</ele><time>2026-04-27T16:47:14.999Z</time></trkpt><trkpt lat="42.62325259823686" lon="11.999168902416137"><ele>319.0</ele><time>2026-04-27T16:47:15.999Z</time></trkpt><trkpt lat="42.62337584170006" lon="11.999252998127952"><ele>321.0</ele><time>2026-04-27T16:47:16.999Z</time></trkpt><trkpt lat="42.62351095947049" lon="11.999319476346216"><ele>323.0</ele><time>2026-04-27T16:47:17.999Z</time></trkpt><trkpt lat="42.62366547854841" lon="11.999369661992414"><ele>325.0</ele><time>2026-04-27T16:47:18.999Z</time></trkpt><trkpt lat="42.62383580286479" lon="11.99940549907807"><ele>325.0</ele><time>2026-04-27T16:47:19.999Z</time></trkpt><trkpt lat="42.624026595219405" lon="11.999415347121046"><ele>325.0</ele><time>2026-04-27T16:47:20.999Z</time></trkpt><trkpt lat="42.62423584526388" lon="11.999410621786936"><ele>325.0</ele><time>2026-04-27T16:47:21.999Z</time></trkpt><trkpt lat="42.62445240596976" lon="11.9994019359517"><ele>328.0</ele><time>2026-04-27T16:47:22.999Z</time></trkpt><trkpt lat="42.62467747435614" lon="11.999392523694892"><ele>331.0</ele><time>2026-04-27T16:47:23.999Z</time></trkpt><trkpt lat="42.62491348429827" lon="11.99938146686018"><ele>331.0</ele><time>2026-04-27T16:47:24.999Z</time></trkpt><trkpt lat="42.62515281488445" lon="11.999377202600202"><ele>331.0</ele><time>2026-04-27T16:47:25.999Z</time></trkpt><trkpt lat="42.62539020743273" lon="11.999368353792327"><ele>337.0</ele><time>2026-04-27T16:47:26.999Z</time></trkpt><trkpt lat="42.625630955706114" lon="11.999352235187295"><ele>343.0</ele><time>2026-04-27T16:47:27.999Z</time></trkpt><trkpt lat="42.62587281778761" lon="11.999341677386745"><ele>343.0</ele><time>2026-04-27T16:47:28.999Z</time></trkpt><trkpt lat="42.62610824607258" lon="11.999337514912542"><ele>343.0</ele><time>2026-04-27T16:47:29.999Z</time></trkpt><trkpt lat="42.62633051825379" lon="11.999330414794048"><ele>346.3333333333333</ele><time>2026-04-27T16:47:30.999Z</time></trkpt><trkpt lat="42.62654404504549" lon="11.99930480009008"><ele>349.6666666666667</ele><time>2026-04-27T16:47:31.999Z</time></trkpt><trkpt lat="42.626768347879654" lon="11.999249734490567"><ele>353.0</ele><time>2026-04-27T16:47:32.999Z</time></trkpt><trkpt lat="42.62699683954239" lon="11.999159174212949"><ele>340.0</ele><time>2026-04-27T16:47:33.999Z</time></trkpt><trkpt lat="42.62723348142665" lon="11.99905782957493"><ele>327.0</ele><time>2026-04-27T16:47:34.999Z</time></trkpt><trkpt lat="42.627480404288214" lon="11.998962610279776"><ele>327.0</ele><time>2026-04-27T16:47:35.999Z</time></trkpt><trkpt lat="42.627718118602786" lon="11.998863195525923"><ele>327.0</ele><time>2026-04-27T16:47:36.999Z</time></trkpt><trkpt lat="42.62794139800941" lon="11.998762248263748"><ele>329.0</ele><time>2026-04-27T16:47:37.999Z</time></trkpt><trkpt lat="42.62815074918366" lon="11.998667950332424"><ele>331.0</ele><time>2026-04-27T16:47:38.999Z</time></trkpt><trkpt lat="42.62834760464036" lon="11.998564085258591"><ele>333.0</ele><time>2026-04-27T16:47:39.999Z</time></trkpt><trkpt lat="42.62855368318652" lon="11.998494154103462"><ele>335.6666666666667</ele><time>2026-04-27T16:47:40.999Z</time></trkpt><trkpt lat="42.628772936015494" lon="11.998456604502348"><ele>338.33333333333337</ele><time>2026-04-27T16:47:41.999Z</time></trkpt><trkpt lat="42.6289925288799" lon="11.998402364899183"><ele>341.0</ele><time>2026-04-27T16:47:42.999Z</time></trkpt><trkpt lat="42.6292045682702" lon="11.998344352220405"><ele>333.5</ele><time>2026-04-27T16:47:43.999Z</time></trkpt><trkpt lat="42.62943038961772" lon="11.99832916656324"><ele>326.0</ele><time>2026-04-27T16:47:44.999Z</time></trkpt><trkpt lat="42.62965473202229" lon="11.998315266318103"><ele>326.0</ele><time>2026-04-27T16:47:45.999Z</time></trkpt><trkpt lat="42.629877286540264" lon="11.998295857523932"><ele>326.0</ele><time>2026-04-27T16:47:46.999Z</time></trkpt><trkpt lat="42.6301035038403" lon="11.99823810010113"><ele>332.5</ele><time>2026-04-27T16:47:47.999Z</time></trkpt><trkpt lat="42.63033078305587" lon="11.998166072490681"><ele>339.0</ele><time>2026-04-27T16:47:48.999Z</time></trkpt><trkpt lat="42.6305543121691" lon="11.998088522163123"><ele>339.0</ele><time>2026-04-27T16:47:49.999Z</time></trkpt><trkpt lat="42.630777258235575" lon="11.99799575756291"><ele>339.0</ele><time>2026-04-27T16:47:50.999Z</time></trkpt><trkpt lat="42.63099359510595" lon="11.997889714915372"><ele>345.5</ele><time>2026-04-27T16:47:51.999Z</time></trkpt><trkpt lat="42.631204408506775" lon="11.997775393495917"><ele>352.0</ele><time>2026-04-27T16:47:52.999Z</time></trkpt><trkpt lat="42.631411204372014" lon="11.99765300946482"><ele>352.0</ele><time>2026-04-27T16:47:53.999Z</time></trkpt><trkpt lat="42.631619652965384" lon="11.997531713579718"><ele>352.0</ele><time>2026-04-27T16:47:54.999Z</time></trkpt><trkpt lat="42.63181446576505" lon="11.99740049023631"><ele>352.0</ele><time>2026-04-27T16:47:55.999Z</time></trkpt><trkpt lat="42.63199635547784" lon="11.997283529591174"><ele>348.0</ele><time>2026-04-27T16:47:56.999Z</time></trkpt><trkpt lat="42.632179348329736" lon="11.997195267703033"><ele>344.0</ele><time>2026-04-27T16:47:57.999Z</time></trkpt><trkpt lat="42.63234008536466" lon="11.997074198914351"><ele>340.0</ele><time>2026-04-27T16:47:58.999Z</time></trkpt><trkpt lat="42.63250616438435" lon="11.996971209361815"><ele>340.0</ele><time>2026-04-27T16:47:59.999Z</time></trkpt><trkpt lat="42.63267769306396" lon="11.996869066876929"><ele>340.0</ele><time>2026-04-27T16:48:00.999Z</time></trkpt><trkpt lat="42.63285063843245" lon="11.99675805478896"><ele>340.0</ele><time>2026-04-27T16:48:01.999Z</time></trkpt><trkpt lat="42.63302236898356" lon="11.99662296911331"><ele>336.66666666666663</ele><time>2026-04-27T16:48:02.999Z</time></trkpt><trkpt lat="42.633203160760765" lon="11.996463521478622"><ele>333.3333333333333</ele><time>2026-04-27T16:48:03.999Z</time></trkpt><trkpt lat="42.633391711510704" lon="11.996295888851153"><ele>330.0</ele><time>2026-04-27T16:48:04.999Z</time></trkpt><trkpt lat="42.633581145721394" lon="11.99612411137244"><ele>333.0</ele><time>2026-04-27T16:48:05.999Z</time></trkpt><trkpt lat="42.63375811074265" lon="11.995955807290615"><ele>336.0</ele><time>2026-04-27T16:48:06.999Z</time></trkpt><trkpt lat="42.63393195809352" lon="11.995792427648034"><ele>339.0</ele><time>2026-04-27T16:48:07.999Z</time></trkpt><trkpt lat="42.63411003329364" lon="11.995636524586791"><ele>333.0</ele><time>2026-04-27T16:48:08.999Z</time></trkpt><trkpt lat="42.6342871207288" lon="11.995492958591147"><ele>327.0</ele><time>2026-04-27T16:48:09.999Z</time></trkpt><trkpt lat="42.63445310030219" lon="11.995364955503824"><ele>321.0</ele><time>2026-04-27T16:48:10.999Z</time></trkpt><trkpt lat="42.63460250746059" lon="11.995271666228605"><ele>321.0</ele><time>2026-04-27T16:48:11.999Z</time></trkpt><trkpt lat="42.634754850535344" lon="11.995202706179553"><ele>321.0</ele><time>2026-04-27T16:48:12.999Z</time></trkpt><trkpt lat="42.63492560673808" lon="11.995141857763313"><ele>321.0</ele><time>2026-04-27T16:48:13.999Z</time></trkpt><trkpt lat="42.63510630011388" lon="11.99508382752105"><ele>321.0</ele><time>2026-04-27T16:48:14.999Z</time></trkpt><trkpt lat="42.63528871516043" lon="11.995026829153119"><ele>321.0</ele><time>2026-04-27T16:48:15.999Z</time></trkpt><trkpt lat="42.63547422166355" lon="11.994969457076445"><ele>321.0</ele><time>2026-04-27T16:48:16.999Z</time></trkpt><trkpt lat="42.63566011583911" lon="11.994913673128828"><ele>320.3333333333333</ele><time>2026-04-27T16:48:17.999Z</time></trkpt><trkpt lat="42.63584778620453" lon="11.994857441808144"><ele>319.66666666666663</ele><time>2026-04-27T16:48:18.999Z</time></trkpt><trkpt lat="42.63602963909826" lon="11.994802443477704"><ele>319.0</ele><time>2026-04-27T16:48:19.999Z</time></trkpt><trkpt lat="42.63620183477282" lon="11.994742142397216"><ele>319.0</ele><time>2026-04-27T16:48:20.999Z</time></trkpt><trkpt lat="42.636368349338014" lon="11.994674563962434"><ele>319.0</ele><time>2026-04-27T16:48:21.999Z</time></trkpt><trkpt lat="42.63653304674667" lon="11.994594313025564"><ele>319.0</ele><time>2026-04-27T16:48:22.999Z</time></trkpt><trkpt lat="42.6366969473597" lon="11.994492209030632"><ele>319.0</ele><time>2026-04-27T16:48:23.999Z</time></trkpt><trkpt lat="42.636864096672014" lon="11.994363746464433"><ele>319.0</ele><time>2026-04-27T16:48:24.999Z</time></trkpt><trkpt lat="42.63702187208991" lon="11.994224537689366"><ele>319.0</ele><time>2026-04-27T16:48:25.999Z</time></trkpt><trkpt lat="42.63715794117432" lon="11.994092371454899"><ele>318.5</ele><time>2026-04-27T16:48:26.999Z</time></trkpt><trkpt lat="42.637288297424234" lon="11.993975138112264"><ele>318.0</ele><time>2026-04-27T16:48:27.999Z</time></trkpt><trkpt lat="42.63741064168505" lon="11.993868022829018"><ele>317.5</ele><time>2026-04-27T16:48:28.999Z</time></trkpt><trkpt lat="42.63752294204318" lon="11.993764054892074"><ele>317.0</ele><time>2026-04-27T16:48:29.999Z</time></trkpt><trkpt lat="42.63763173833451" lon="11.993667505526497"><ele>317.0</ele><time>2026-04-27T16:48:31Z</time></trkpt><trkpt lat="42.63773841278697" lon="11.993573883185821"><ele>317.0</ele><time>2026-04-27T16:48:32Z</time></trkpt><trkpt lat="42.63786257045009" lon="11.993462894327743"><ele>317.0</ele><time>2026-04-27T16:48:33Z</time></trkpt><trkpt lat="42.63799607887647" lon="11.993346051411654"><ele>317.0</ele><time>2026-04-27T16:48:34Z</time></trkpt><trkpt lat="42.638136102906344" lon="11.993226501161237"><ele>317.6666666666667</ele><time>2026-04-27T16:48:35Z</time></trkpt><trkpt lat="42.63828261833382" lon="11.993115593781289"><ele>318.3333333333333</ele><time>2026-04-27T16:48:36Z</time></trkpt><trkpt lat="42.638428727013284" lon="11.9930178429679"><ele>319.0</ele><time>2026-04-27T16:48:37Z</time></trkpt><trkpt lat="42.638559171748334" lon="11.992910840823718"><ele>320.3333333333333</ele><time>2026-04-27T16:48:38Z</time></trkpt><trkpt lat="42.63867894608443" lon="11.992778541251893"><ele>321.6666666666667</ele><time>2026-04-27T16:48:39Z</time></trkpt><trkpt lat="42.63879408494255" lon="11.99263342957249"><ele>323.0</ele><time>2026-04-27T16:48:40Z</time></trkpt><trkpt lat="42.63890671563885" lon="11.992482870533033"><ele>323.0</ele><time>2026-04-27T16:48:41Z</time></trkpt><trkpt lat="42.639018049215004" lon="11.992328386582871"><ele>323.0</ele><time>2026-04-27T16:48:42Z</time></trkpt><trkpt lat="42.639132751380735" lon="11.992178600485946"><ele>323.0</ele><time>2026-04-27T16:48:43Z</time></trkpt><trkpt lat="42.639253450661535" lon="11.992037449700476"><ele>323.0</ele><time>2026-04-27T16:48:44Z</time></trkpt><trkpt lat="42.63937380364384" lon="11.991895271312103"><ele>323.0</ele><time>2026-04-27T16:48:45Z</time></trkpt><trkpt lat="42.6394845010572" lon="11.991763988367591"><ele>323.0</ele><time>2026-04-27T16:48:46Z</time></trkpt><trkpt lat="42.63958977123491" lon="11.991644851055554"><ele>323.0</ele><time>2026-04-27T16:48:47Z</time></trkpt><trkpt lat="42.639692309093626" lon="11.991539519776648"><ele>322.25</ele><time>2026-04-27T16:48:48Z</time></trkpt><trkpt lat="42.63979681433077" lon="11.991446368227477"><ele>321.5</ele><time>2026-04-27T16:48:49Z</time></trkpt><trkpt lat="42.63990857790517" lon="11.991355784943464"><ele>320.75</ele><time>2026-04-27T16:48:50Z</time></trkpt><trkpt lat="42.64002427859249" lon="11.991259577181893"><ele>320.0</ele><time>2026-04-27T16:48:51Z</time></trkpt><trkpt lat="42.640132977252584" lon="11.991165085226466"><ele>320.0</ele><time>2026-04-27T16:48:52Z</time></trkpt><trkpt lat="42.64023340883606" lon="11.99107476509722"><ele>320.0</ele><time>2026-04-27T16:48:53Z</time></trkpt><trkpt lat="42.64032776025424" lon="11.990992724825592"><ele>320.0</ele><time>2026-04-27T16:48:54Z</time></trkpt><trkpt lat="42.640423087659535" lon="11.990923871498111"><ele>320.0</ele><time>2026-04-27T16:48:55Z</time></trkpt><trkpt lat="42.640516713273" lon="11.990855677987568"><ele>320.0</ele><time>2026-04-27T16:48:56Z</time></trkpt><trkpt lat="42.64060954454549" lon="11.99078395126331"><ele>320.0</ele><time>2026-04-27T16:48:57Z</time></trkpt><trkpt lat="42.640701071422484" lon="11.990710048155039"><ele>320.0</ele><time>2026-04-27T16:48:58Z</time></trkpt><trkpt lat="42.64079264515784" lon="11.990636459155043"><ele>320.0</ele><time>2026-04-27T16:48:59Z</time></trkpt><trkpt lat="42.64088321831646" lon="11.990565106929107"><ele>320.0</ele><time>2026-04-27T16:49:00Z</time></trkpt><trkpt lat="42.64097387375886" lon="11.9904909862479"><ele>320.0</ele><time>2026-04-27T16:49:01Z</time></trkpt><trkpt lat="42.641059271800614" lon="11.99041738046572"><ele>320.0</ele><time>2026-04-27T16:49:02Z</time></trkpt><trkpt lat="42.64113835325875" lon="11.990345115156675"><ele>320.0</ele><time>2026-04-27T16:49:03Z</time></trkpt><trkpt lat="42.64120748021592" lon="11.990269101481898"><ele>320.0</ele><time>2026-04-27T16:49:04Z</time></trkpt><trkpt lat="42.64126847641801" lon="11.990182459556827"><ele>320.0</ele><time>2026-04-27T16:49:05Z</time></trkpt><trkpt lat="42.64132769613762" lon="11.990090196734203"><ele>320.0</ele><time>2026-04-27T16:49:06Z</time></trkpt><trkpt lat="42.6413915938213" lon="11.989989924153203"><ele>320.0</ele><time>2026-04-27T16:49:07Z</time></trkpt><trkpt lat="42.64145261200164" lon="11.989888665282972"><ele>320.0</ele><time>2026-04-27T16:49:08Z</time></trkpt><trkpt lat="42.64150425015724" lon="11.989805479778989"><ele>320.0</ele><time>2026-04-27T16:49:09Z</time></trkpt><trkpt lat="42.641551055231616" lon="11.989727257436076"><ele>320.0</ele><time>2026-04-27T16:49:10Z</time></trkpt><trkpt lat="42.64158716155343" lon="11.989656480093421"><ele>320.0</ele><time>2026-04-27T16:49:11Z</time></trkpt><trkpt lat="42.64166293898995" lon="11.989581614648907"><ele>320.0</ele><time>2026-04-27T16:49:13Z</time></trkpt><trkpt lat="42.641671947030474" lon="11.989786509438966"><ele>320.0</ele><time>2026-04-27T16:49:16Z</time></trkpt><trkpt lat="42.64167194703162" lon="11.989873608366247"><ele>320.0</ele><time>2026-04-27T16:49:19Z</time></trkpt><trkpt lat="42.64182731359109" lon="11.989867362781734"><ele>320.0</ele><time>2026-04-27T16:49:28Z</time></trkpt><trkpt lat="42.641867890388454" lon="11.989800892138222"><ele>320.0</ele><time>2026-04-27T16:49:29Z</time></trkpt><trkpt lat="42.641982477466335" lon="11.989708539285223"><ele>320.0</ele><time>2026-04-27T16:49:31Z</time></trkpt><trkpt lat="42.6420523440588" lon="11.989664983879551"><ele>320.5</ele><time>2026-04-27T16:49:32Z</time></trkpt><trkpt lat="42.64212879861734" lon="11.98960300090075"><ele>321.0</ele><time>2026-04-27T16:49:33Z</time></trkpt><trkpt lat="42.6422101925209" lon="11.989538209934441"><ele>321.5</ele><time>2026-04-27T16:49:34Z</time></trkpt><trkpt lat="42.64228291940131" lon="11.989489310250562"><ele>322.0</ele><time>2026-04-27T16:49:35Z</time></trkpt><trkpt lat="42.6423483224693" lon="11.989431259356882"><ele>322.5</ele><time>2026-04-27T16:49:36Z</time></trkpt><trkpt lat="42.64240941369849" lon="11.989376643470544"><ele>323.0</ele><time>2026-04-27T16:49:37Z</time></trkpt><trkpt lat="42.64246367391424" lon="11.989327719434092"><ele>323.0</ele><time>2026-04-27T16:49:38Z</time></trkpt><trkpt lat="42.6425603185655" lon="11.989242590601688"><ele>323.0</ele><time>2026-04-27T16:49:40Z</time></trkpt><trkpt lat="42.64263765430042" lon="11.989174510206567"><ele>323.0</ele><time>2026-04-27T16:49:42Z</time></trkpt><trkpt lat="42.64269360626525" lon="11.989128855810504"><ele>323.0</ele><time>2026-04-27T16:49:44Z</time></trkpt><trkpt lat="42.64277274181536" lon="11.989087885049045"><ele>323.0</ele><time>2026-04-27T16:50:11Z</time></trkpt><trkpt lat="42.64286966382822" lon="11.989016234417441"><ele>323.4</ele><time>2026-04-27T16:50:13Z</time></trkpt><trkpt lat="42.64299282495398" lon="11.988956217860258"><ele>323.79999999999995</ele><time>2026-04-27T16:50:15Z</time></trkpt><trkpt lat="42.643053245273926" lon="11.988919808765502"><ele>324.2</ele><time>2026-04-27T16:50:16Z</time></trkpt><trkpt lat="42.64312403982108" lon="11.988876020714201"><ele>324.6</ele><time>2026-04-27T16:50:17Z</time></trkpt><trkpt lat="42.64319678130728" lon="11.988849963949807"><ele>325.0</ele><time>2026-04-27T16:50:18Z</time></trkpt><trkpt lat="42.64330548794868" lon="11.988811650351096"><ele>325.0</ele><time>2026-04-27T16:50:20Z</time></trkpt><trkpt lat="42.64341375472592" lon="11.98879405726358"><ele>325.0</ele><time>2026-04-27T16:50:22Z</time></trkpt><trkpt lat="42.643504605341676" lon="11.988788987334573"><ele>325.0</ele><time>2026-04-27T16:50:24Z</time></trkpt><trkpt lat="42.64357892886237" lon="11.988837275684554"><ele>325.0</ele><time>2026-04-27T16:50:26Z</time></trkpt><trkpt lat="42.64359550861232" lon="11.988934578294073"><ele>325.0</ele><time>2026-04-27T16:50:28Z</time></trkpt><trkpt lat="42.64358607129178" lon="11.989022302286664"><ele>325.0</ele><time>2026-04-27T16:51:27Z</time></trkpt><trkpt lat="42.643568222369346" lon="11.989108086913694"><ele>325.0</ele><time>2026-04-27T16:51:33Z</time></trkpt><trkpt lat="42.64353489045548" lon="11.989231530328407"><ele>325.0</ele><time>2026-04-27T16:51:56Z</time></trkpt><trkpt lat="42.6435513669211" lon="11.989146078973356"><ele>325.0</ele><time>2026-04-27T16:52:23Z</time></trkpt><trkpt lat="42.64357385416899" lon="11.989054452935367"><ele>325.0</ele><time>2026-04-27T16:52:30Z</time></trkpt><trkpt lat="42.64360821091154" lon="11.988968497564848"><ele>325.0</ele><time>2026-04-27T16:52:37Z</time></trkpt><trkpt lat="42.64354707294724" lon="11.988994645840451"><ele>325.0</ele><time>2026-04-27T16:56:20Z</time></trkpt><trkpt lat="42.64349049135048" lon="11.989056662631473"><ele>325.0</ele><time>2026-04-27T16:56:27Z</time></trkpt><trkpt lat="42.64354108384882" lon="11.988993428196313"><ele>325.0</ele><time>2026-04-27T16:57:04Z</time></trkpt><trkpt lat="42.64358533876953" lon="11.988925193851813"><ele>325.0</ele><time>2026-04-27T16:57:12Z</time></trkpt><trkpt lat="42.64360578815319" lon="11.989006475347962"><ele>325.0</ele><time>2026-04-27T16:58:42Z</time></trkpt><trkpt lat="42.6435709966277" lon="11.988918735268461"><ele>325.0</ele><time>2026-04-27T17:04:10Z</time></trkpt><trkpt lat="42.6436136023277" lon="11.988844410130433"><ele>325.0</ele><time>2026-04-27T17:04:13Z</time></trkpt><trkpt lat="42.64369748593503" lon="11.988893342001653"><ele>325.0</ele><time>2026-04-27T17:04:15Z</time></trkpt><trkpt lat="42.64378391434154" lon="11.989015214521327"><ele>326.16666666666663</ele><time>2026-04-27T17:04:17Z</time></trkpt><trkpt lat="42.64380402149007" lon="11.989102459861833"><ele>327.3333333333333</ele><time>2026-04-27T17:04:18Z</time></trkpt><trkpt lat="42.64385196291315" lon="11.989160193892708"><ele>328.5</ele><time>2026-04-27T17:04:19Z</time></trkpt><trkpt lat="42.643910286880065" lon="11.989230690563272"><ele>329.6666666666667</ele><time>2026-04-27T17:04:20Z</time></trkpt><trkpt lat="42.64397058301325" lon="11.98930356962176"><ele>330.83333333333337</ele><time>2026-04-27T17:04:21Z</time></trkpt><trkpt lat="42.64403616544666" lon="11.989381509843454"><ele>332.0</ele><time>2026-04-27T17:04:22Z</time></trkpt><trkpt lat="42.644095109433856" lon="11.9894472262505"><ele>332.0</ele><time>2026-04-27T17:04:23Z</time></trkpt><trkpt lat="42.644174592169875" lon="11.989525916865789"><ele>332.0</ele><time>2026-04-27T17:04:25Z</time></trkpt><trkpt lat="42.64416379420987" lon="11.989427511333446"><ele>332.0</ele><time>2026-04-27T17:04:31Z</time></trkpt><trkpt lat="42.64408994001212" lon="11.989392344658144"><ele>332.0</ele><time>2026-04-27T17:04:33Z</time></trkpt><trkpt lat="42.64402544380912" lon="11.989314717259187"><ele>332.0</ele><time>2026-04-27T17:04:35Z</time></trkpt><trkpt lat="42.64394533610335" lon="11.989229549717459"><ele>332.0</ele><time>2026-04-27T17:04:51Z</time></trkpt><trkpt lat="42.64387062364937" lon="11.989115732898044"><ele>332.0</ele><time>2026-04-27T17:04:53Z</time></trkpt><trkpt lat="42.64383695403768" lon="11.989040990494797"><ele>332.0</ele><time>2026-04-27T17:04:56Z</time></trkpt><trkpt lat="42.643776488071005" lon="11.988994546335723"><ele>332.0</ele><time>2026-04-27T17:05:03Z</time></trkpt><trkpt lat="42.643720148031264" lon="11.988944085167047"><ele>332.0</ele><time>2026-04-27T17:05:06Z</time></trkpt><trkpt lat="42.64367155537762" lon="11.98888015832872"><ele>332.0</ele><time>2026-04-27T17:05:09Z</time></trkpt><trkpt lat="42.643584600142134" lon="11.98881896689354"><ele>332.0</ele><time>2026-04-27T17:05:13Z</time></trkpt><trkpt lat="42.6436590562983" lon="11.988869275955846"><ele>332.0</ele><time>2026-04-27T17:05:20Z</time></trkpt><trkpt lat="42.64372304903682" lon="11.9889039427033"><ele>332.0</ele><time>2026-04-27T17:05:22Z</time></trkpt><trkpt lat="42.64378684476781" lon="11.988828793523785"><ele>332.0</ele><time>2026-04-27T17:05:23Z</time></trkpt><trkpt lat="42.643874129693415" lon="11.988692204545"><ele>332.0</ele><time>2026-04-27T17:05:25Z</time></trkpt><trkpt lat="42.643950974089464" lon="11.988572883029718"><ele>332.0</ele><time>2026-04-27T17:05:27Z</time></trkpt><trkpt lat="42.6440177673419" lon="11.988477281186162"><ele>332.0</ele><time>2026-04-27T17:05:29Z</time></trkpt><trkpt lat="42.6440881051352" lon="11.988380684036144"><ele>332.0</ele><time>2026-04-27T17:05:31Z</time></trkpt><trkpt lat="42.64418009785134" lon="11.988254183123676"><ele>332.0</ele><time>2026-04-27T17:05:33Z</time></trkpt><trkpt lat="42.644230496997324" lon="11.988186877645537"><ele>332.0</ele><time>2026-04-27T17:05:34Z</time></trkpt><trkpt lat="42.64428073629367" lon="11.988129740769812"><ele>332.0</ele><time>2026-04-27T17:05:35Z</time></trkpt><trkpt lat="42.644335587409536" lon="11.988073597099712"><ele>332.0</ele><time>2026-04-27T17:05:36Z</time></trkpt><trkpt lat="42.64439492068404" lon="11.987975395311873"><ele>331.40000000000003</ele><time>2026-04-27T17:05:38Z</time></trkpt><trkpt lat="42.64443102406396" lon="11.987889749371345"><ele>330.8</ele><time>2026-04-27T17:05:42Z</time></trkpt><trkpt lat="42.644447734709495" lon="11.987749950937763"><ele>330.2</ele><time>2026-04-27T17:05:45Z</time></trkpt><trkpt lat="42.64447685874056" lon="11.98759833984247"><ele>329.6</ele><time>2026-04-27T17:05:47Z</time></trkpt><trkpt lat="42.644495286327356" lon="11.987513437425024"><ele>329.0</ele><time>2026-04-27T17:05:48Z</time></trkpt><trkpt lat="42.644524880471984" lon="11.98738604226709"><ele>329.0</ele><time>2026-04-27T17:05:50Z</time></trkpt><trkpt lat="42.644539565362805" lon="11.987269962166407"><ele>329.0</ele><time>2026-04-27T17:05:52Z</time></trkpt><trkpt lat="42.64453972622602" lon="11.987144480328016"><ele>329.0</ele><time>2026-04-27T17:05:54Z</time></trkpt><trkpt lat="42.64449962806684" lon="11.986999327547917"><ele>329.0</ele><time>2026-04-27T17:05:56Z</time></trkpt><trkpt lat="42.644440814237505" lon="11.986901121990723"><ele>329.0</ele><time>2026-04-27T17:05:58Z</time></trkpt><trkpt lat="42.64441718096284" lon="11.98682141865588"><ele>329.0</ele><time>2026-04-27T17:06:01Z</time></trkpt><trkpt lat="42.64435225058941" lon="11.986750292660641"><ele>327.2</ele><time>2026-04-27T17:06:34Z</time></trkpt><trkpt lat="42.64427515843879" lon="11.98666210971558"><ele>325.4</ele><time>2026-04-27T17:06:36Z</time></trkpt><trkpt lat="42.64417239017989" lon="11.986525204616116"><ele>323.6</ele><time>2026-04-27T17:06:38Z</time></trkpt><trkpt lat="42.64411970857208" lon="11.986464934075961"><ele>321.8</ele><time>2026-04-27T17:06:39Z</time></trkpt><trkpt lat="42.64403413414072" lon="11.986361277627193"><ele>320.0</ele><time>2026-04-27T17:06:41Z</time></trkpt><trkpt lat="42.64394118215692" lon="11.986242583012096"><ele>320.0</ele><time>2026-04-27T17:06:43Z</time></trkpt><trkpt lat="42.643887817595505" lon="11.986175344341202"><ele>320.0</ele><time>2026-04-27T17:06:44Z</time></trkpt><trkpt lat="42.6438404304592" lon="11.986107962980071"><ele>320.0</ele><time>2026-04-27T17:06:45Z</time></trkpt><trkpt lat="42.643784972623266" lon="11.986032248273975"><ele>320.0</ele><time>2026-04-27T17:06:46Z</time></trkpt><trkpt lat="42.64372177947901" lon="11.985955111060278"><ele>320.0</ele><time>2026-04-27T17:06:47Z</time></trkpt><trkpt lat="42.64366707451488" lon="11.985884059582128"><ele>320.0</ele><time>2026-04-27T17:06:48Z</time></trkpt><trkpt lat="42.643621174076095" lon="11.985825092979914"><ele>320.0</ele><time>2026-04-27T17:06:49Z</time></trkpt><trkpt lat="42.643578018891475" lon="11.985747677612556"><ele>319.2</ele><time>2026-04-27T17:06:51Z</time></trkpt><trkpt lat="42.64349347512327" lon="11.985635613593969"><ele>318.4</ele><time>2026-04-27T17:10:27Z</time></trkpt><trkpt lat="42.6434062078693" lon="11.985534940407709"><ele>317.6</ele><time>2026-04-27T17:10:29Z</time></trkpt><trkpt lat="42.64336037189496" lon="11.985471179019674"><ele>316.8</ele><time>2026-04-27T17:10:30Z</time></trkpt><trkpt lat="42.64330509459846" lon="11.985397773777903"><ele>316.0</ele><time>2026-04-27T17:10:31Z</time></trkpt><trkpt lat="42.64324755842693" lon="11.985321384859299"><ele>316.0</ele><time>2026-04-27T17:10:32Z</time></trkpt><trkpt lat="42.6431893871614" lon="11.985253588636255"><ele>316.0</ele><time>2026-04-27T17:10:33Z</time></trkpt><trkpt lat="42.64312252555755" lon="11.985170815961736"><ele>316.0</ele><time>2026-04-27T17:10:34Z</time></trkpt><trkpt lat="42.64305097689013" lon="11.985076244126267"><ele>316.0</ele><time>2026-04-27T17:10:35Z</time></trkpt><trkpt lat="42.64297829446255" lon="11.984974713370882"><ele>316.0</ele><time>2026-04-27T17:10:36Z</time></trkpt><trkpt lat="42.64289886883566" lon="11.984868661782516"><ele>316.0</ele><time>2026-04-27T17:10:37Z</time></trkpt><trkpt lat="42.64282115744523" lon="11.984767258689445"><ele>316.0</ele><time>2026-04-27T17:10:38Z</time></trkpt><trkpt lat="42.64273941480161" lon="11.984662762580577"><ele>316.0</ele><time>2026-04-27T17:10:39Z</time></trkpt><trkpt lat="42.64266512337992" lon="11.98456139338579"><ele>316.0</ele><time>2026-04-27T17:10:40Z</time></trkpt><trkpt lat="42.64258847888107" lon="11.984464533023315"><ele>316.0</ele><time>2026-04-27T17:10:41Z</time></trkpt><trkpt lat="42.64251138391356" lon="11.984362570758247"><ele>315.2</ele><time>2026-04-27T17:10:42Z</time></trkpt><trkpt lat="42.64243204366014" lon="11.984267794194807"><ele>314.40000000000003</ele><time>2026-04-27T17:10:43Z</time></trkpt><trkpt lat="42.64236827184038" lon="11.984188595774524"><ele>313.6</ele><time>2026-04-27T17:10:44Z</time></trkpt><trkpt lat="42.64231907695202" lon="11.984125396443778"><ele>312.8</ele><time>2026-04-27T17:10:45Z</time></trkpt><trkpt lat="42.64225823395397" lon="11.984068687897834"><ele>312.0</ele><time>2026-04-27T17:10:47Z</time></trkpt><trkpt lat="42.642156979491986" lon="11.984228029263376"><ele>312.0</ele><time>2026-04-27T17:10:49Z</time></trkpt><trkpt lat="42.642095061650394" lon="11.984292784738786"><ele>312.0</ele><time>2026-04-27T17:10:50Z</time></trkpt><trkpt lat="42.642035590782086" lon="11.984382764262508"><ele>312.0</ele><time>2026-04-27T17:10:51Z</time></trkpt><trkpt lat="42.641972265874365" lon="11.984482054630936"><ele>312.0</ele><time>2026-04-27T17:10:52Z</time></trkpt><trkpt lat="42.64190434137934" lon="11.984589044069986"><ele>312.0</ele><time>2026-04-27T17:10:53Z</time></trkpt><trkpt lat="42.64184526320317" lon="11.984704075937662"><ele>311.5</ele><time>2026-04-27T17:10:54Z</time></trkpt><trkpt lat="42.64178572486592" lon="11.984802015250528"><ele>311.0</ele><time>2026-04-27T17:10:55Z</time></trkpt><trkpt lat="42.641724491145" lon="11.984894163881052"><ele>310.5</ele><time>2026-04-27T17:10:56Z</time></trkpt><trkpt lat="42.641663235896324" lon="11.984986223245006"><ele>310.0</ele><time>2026-04-27T17:10:57Z</time></trkpt><trkpt lat="42.6416056137102" lon="11.985069472735148"><ele>309.5</ele><time>2026-04-27T17:10:58Z</time></trkpt><trkpt lat="42.64155305883724" lon="11.985150993805615"><ele>309.0</ele><time>2026-04-27T17:10:59Z</time></trkpt><trkpt lat="42.64150960143423" lon="11.98522190005747"><ele>309.0</ele><time>2026-04-27T17:11:00Z</time></trkpt><trkpt lat="42.64142175175322" lon="11.985326911904856"><ele>309.0</ele><time>2026-04-27T17:11:02Z</time></trkpt><trkpt lat="42.6413479881493" lon="11.985366461997627"><ele>309.0</ele><time>2026-04-27T17:11:03Z</time></trkpt><trkpt lat="42.64126229787654" lon="11.985397570458959"><ele>309.0</ele><time>2026-04-27T17:11:04Z</time></trkpt><trkpt lat="42.64118292284299" lon="11.985421321100532"><ele>309.0</ele><time>2026-04-27T17:11:05Z</time></trkpt><trkpt lat="42.64111546289709" lon="11.985443403033209"><ele>309.0</ele><time>2026-04-27T17:11:06Z</time></trkpt><trkpt lat="42.64098153364561" lon="11.985476886298818"><ele>309.2</ele><time>2026-04-27T17:11:08Z</time></trkpt><trkpt lat="42.64088075947732" lon="11.985476960551967"><ele>309.4</ele><time>2026-04-27T17:11:09Z</time></trkpt><trkpt lat="42.64077929910221" lon="11.985470784246814"><ele>309.6</ele><time>2026-04-27T17:11:10Z</time></trkpt><trkpt lat="42.64066852118138" lon="11.985470239374953"><ele>309.8</ele><time>2026-04-27T17:11:11Z</time></trkpt><trkpt lat="42.640573627173744" lon="11.985480054915401"><ele>310.0</ele><time>2026-04-27T17:11:12Z</time></trkpt><trkpt lat="42.640492095362454" lon="11.98551442414115"><ele>310.0</ele><time>2026-04-27T17:11:13Z</time></trkpt><trkpt lat="42.64041057590147" lon="11.985579903698987"><ele>310.0</ele><time>2026-04-27T17:11:14Z</time></trkpt><trkpt lat="42.64032520693776" lon="11.985674290400457"><ele>310.0</ele><time>2026-04-27T17:11:15Z</time></trkpt><trkpt lat="42.64023289381325" lon="11.985783395726402"><ele>310.0</ele><time>2026-04-27T17:11:16Z</time></trkpt><trkpt lat="42.64014029836291" lon="11.985885994218897"><ele>310.0</ele><time>2026-04-27T17:11:17Z</time></trkpt><trkpt lat="42.64003792218232" lon="11.985991719638182"><ele>310.0</ele><time>2026-04-27T17:11:18Z</time></trkpt><trkpt lat="42.639930710624206" lon="11.986099243846684"><ele>310.0</ele><time>2026-04-27T17:11:19Z</time></trkpt><trkpt lat="42.63982492514561" lon="11.986189556823177"><ele>310.0</ele><time>2026-04-27T17:11:20Z</time></trkpt><trkpt lat="42.63974361858851" lon="11.986246578319427"><ele>310.0</ele><time>2026-04-27T17:11:21Z</time></trkpt><trkpt lat="42.63967786946675" lon="11.98622716142516"><ele>310.0</ele><time>2026-04-27T17:11:22Z</time></trkpt><trkpt lat="42.63961716784046" lon="11.986260337772324"><ele>310.0</ele><time>2026-04-27T17:11:29Z</time></trkpt><trkpt lat="42.6396899358481" lon="11.986458538431261"><ele>310.0</ele><time>2026-04-27T17:11:31Z</time></trkpt><trkpt lat="42.639760508394524" lon="11.986546753847438"><ele>310.0</ele><time>2026-04-27T17:11:32Z</time></trkpt><trkpt lat="42.63983889613978" lon="11.98662444357464"><ele>310.0</ele><time>2026-04-27T17:11:33Z</time></trkpt><trkpt lat="42.639913767462915" lon="11.986715754842564"><ele>310.2</ele><time>2026-04-27T17:11:34Z</time></trkpt><trkpt lat="42.6399954445638" lon="11.986815128042126"><ele>310.4</ele><time>2026-04-27T17:11:35Z</time></trkpt><trkpt lat="42.640072411831184" lon="11.986909743466272"><ele>310.6</ele><time>2026-04-27T17:11:36Z</time></trkpt><trkpt lat="42.64013679986165" lon="11.986992230689467"><ele>310.8</ele><time>2026-04-27T17:11:37Z</time></trkpt><trkpt lat="42.6402015279649" lon="11.987066327257446"><ele>311.0</ele><time>2026-04-27T17:11:38Z</time></trkpt><trkpt lat="42.64025918747349" lon="11.987166340032825"><ele>311.2</ele><time>2026-04-27T17:11:39Z</time></trkpt><trkpt lat="42.64033026562402" lon="11.987255959097538"><ele>311.40000000000003</ele><time>2026-04-27T17:11:40Z</time></trkpt><trkpt lat="42.64041439666486" lon="11.987333889471367"><ele>311.6</ele><time>2026-04-27T17:11:41Z</time></trkpt><trkpt lat="42.640485854588995" lon="11.987436711393903"><ele>311.8</ele><time>2026-04-27T17:11:42Z</time></trkpt><trkpt lat="42.64056238616914" lon="11.987533173374029"><ele>312.0</ele><time>2026-04-27T17:11:43Z</time></trkpt><trkpt lat="42.64064002507236" lon="11.987638460778937"><ele>312.2</ele><time>2026-04-27T17:11:44Z</time></trkpt><trkpt lat="42.64070369172605" lon="11.98775495977878"><ele>312.4</ele><time>2026-04-27T17:11:45Z</time></trkpt><trkpt lat="42.64077768117349" lon="11.987865714491637"><ele>312.6</ele><time>2026-04-27T17:11:46Z</time></trkpt><trkpt lat="42.640851906628264" lon="11.987977209664937"><ele>312.8</ele><time>2026-04-27T17:11:47Z</time></trkpt><trkpt lat="42.640924986583805" lon="11.988089243321754"><ele>313.0</ele><time>2026-04-27T17:11:48Z</time></trkpt><trkpt lat="42.640997719039255" lon="11.988200744395973"><ele>313.0</ele><time>2026-04-27T17:11:49Z</time></trkpt><trkpt lat="42.64107022903294" lon="11.988311904329866"><ele>313.0</ele><time>2026-04-27T17:11:50Z</time></trkpt><trkpt lat="42.64114284685531" lon="11.988423692359506"><ele>313.0</ele><time>2026-04-27T17:11:51Z</time></trkpt><trkpt lat="42.64122579605679" lon="11.988517050031161"><ele>313.0</ele><time>2026-04-27T17:11:52Z</time></trkpt><trkpt lat="42.64128494357414" lon="11.98864136020069"><ele>313.0</ele><time>2026-04-27T17:11:53Z</time></trkpt><trkpt lat="42.641354281359355" lon="11.988745826183543"><ele>313.8</ele><time>2026-04-27T17:11:54Z</time></trkpt><trkpt lat="42.64142069791998" lon="11.988847542076059"><ele>314.6</ele><time>2026-04-27T17:11:55Z</time></trkpt><trkpt lat="42.64149745430503" lon="11.988932003721219"><ele>315.4</ele><time>2026-04-27T17:11:56Z</time></trkpt><trkpt lat="42.64155972897743" lon="11.989029727058092"><ele>316.2</ele><time>2026-04-27T17:11:57Z</time></trkpt><trkpt lat="42.64161550335405" lon="11.989118082821793"><ele>317.0</ele><time>2026-04-27T17:11:58Z</time></trkpt><trkpt lat="42.6416644824061" lon="11.989194735997868"><ele>317.0</ele><time>2026-04-27T17:11:59Z</time></trkpt><trkpt lat="42.64172013516617" lon="11.989273365391657"><ele>317.0</ele><time>2026-04-27T17:12:01Z</time></trkpt><trkpt lat="42.64175298327806" lon="11.989351857509694"><ele>317.0</ele><time>2026-04-27T17:12:04Z</time></trkpt><trkpt lat="42.64185740108312" lon="11.989230576095649"><ele>317.0</ele><time>2026-04-27T17:12:05Z</time></trkpt><trkpt lat="42.64189723256599" lon="11.989126515694375"><ele>317.0</ele><time>2026-04-27T17:12:06Z</time></trkpt><trkpt lat="42.64195047781901" lon="11.989014353543963"><ele>317.5</ele><time>2026-04-27T17:12:07Z</time></trkpt><trkpt lat="42.64202635498867" lon="11.988878225872764"><ele>318.0</ele><time>2026-04-27T17:12:08Z</time></trkpt><trkpt lat="42.642116192765336" lon="11.98873723714344"><ele>318.5</ele><time>2026-04-27T17:12:09Z</time></trkpt><trkpt lat="42.64220374609805" lon="11.988611010562657"><ele>319.0</ele><time>2026-04-27T17:12:10Z</time></trkpt><trkpt lat="42.642292342582756" lon="11.988495014879142"><ele>319.0</ele><time>2026-04-27T17:12:11Z</time></trkpt><trkpt lat="42.64238212968224" lon="11.988384006589667"><ele>319.0</ele><time>2026-04-27T17:12:12Z</time></trkpt><trkpt lat="42.6424764452089" lon="11.988281025999887"><ele>319.0</ele><time>2026-04-27T17:12:13Z</time></trkpt><trkpt lat="42.64257318109128" lon="11.988188850480167"><ele>319.0</ele><time>2026-04-27T17:12:14Z</time></trkpt><trkpt lat="42.64266855043228" lon="11.988095966200207"><ele>319.5</ele><time>2026-04-27T17:12:15Z</time></trkpt><trkpt lat="42.64276858644537" lon="11.98798740001985"><ele>320.0</ele><time>2026-04-27T17:12:16Z</time></trkpt><trkpt lat="42.642870719347826" lon="11.987875750175881"><ele>320.5</ele><time>2026-04-27T17:12:17Z</time></trkpt><trkpt lat="42.642974321685" lon="11.98776402004729"><ele>321.0</ele><time>2026-04-27T17:12:18Z</time></trkpt><trkpt lat="42.64308406858317" lon="11.987647580512968"><ele>321.0</ele><time>2026-04-27T17:12:19Z</time></trkpt><trkpt lat="42.6431979064601" lon="11.987527977324604"><ele>321.0</ele><time>2026-04-27T17:12:20Z</time></trkpt><trkpt lat="42.643313921863154" lon="11.987406509650507"><ele>321.0</ele><time>2026-04-27T17:12:21Z</time></trkpt><trkpt lat="42.643427546145595" lon="11.987279919849387"><ele>321.0</ele><time>2026-04-27T17:12:22Z</time></trkpt><trkpt lat="42.64354380194654" lon="11.987158616785402"><ele>321.75</ele><time>2026-04-27T17:12:23Z</time></trkpt><trkpt lat="42.64365215967075" lon="11.987043531573935"><ele>322.5</ele><time>2026-04-27T17:12:24Z</time></trkpt><trkpt lat="42.64376184889703" lon="11.986929334579083"><ele>323.25</ele><time>2026-04-27T17:12:25Z</time></trkpt><trkpt lat="42.643863762820374" lon="11.986818686342776"><ele>324.0</ele><time>2026-04-27T17:12:26Z</time></trkpt><trkpt lat="42.643951947927654" lon="11.986722048746664"><ele>324.0</ele><time>2026-04-27T17:12:27Z</time></trkpt><trkpt lat="42.64401884551505" lon="11.986638682839715"><ele>324.0</ele><time>2026-04-27T17:12:28Z</time></trkpt><trkpt lat="42.64407441301647" lon="11.986576578455805"><ele>324.0</ele><time>2026-04-27T17:12:29Z</time></trkpt><trkpt lat="42.6441832922185" lon="11.98656906805594"><ele>324.0</ele><time>2026-04-27T17:12:31Z</time></trkpt><trkpt lat="42.64426634220823" lon="11.986709171626796"><ele>324.0</ele><time>2026-04-27T17:12:33Z</time></trkpt><trkpt lat="42.644317223911706" lon="11.986793069128279"><ele>324.0</ele><time>2026-04-27T17:12:34Z</time></trkpt><trkpt lat="42.644371786228845" lon="11.986883222201985"><ele>324.0</ele><time>2026-04-27T17:12:35Z</time></trkpt><trkpt lat="42.644426442005724" lon="11.986973529738382"><ele>324.0</ele><time>2026-04-27T17:12:36Z</time></trkpt><trkpt lat="42.64447676461138" lon="11.987059509975321"><ele>324.0</ele><time>2026-04-27T17:12:37Z</time></trkpt><trkpt lat="42.64453332565788" lon="11.98720834715863"><ele>324.0</ele><time>2026-04-27T17:12:39Z</time></trkpt><trkpt lat="42.644506831422504" lon="11.987289781475619"><ele>324.0</ele><time>2026-04-27T17:12:40Z</time></trkpt><trkpt lat="42.64449466760343" lon="11.987376415694628"><ele>324.5</ele><time>2026-04-27T17:12:41Z</time></trkpt><trkpt lat="42.64446812347975" lon="11.987460486177442"><ele>325.0</ele><time>2026-04-27T17:12:42Z</time></trkpt><trkpt lat="42.64444471244591" lon="11.987558176530731"><ele>325.5</ele><time>2026-04-27T17:12:43Z</time></trkpt><trkpt lat="42.644417551166086" lon="11.987675490120738"><ele>326.0</ele><time>2026-04-27T17:12:44Z</time></trkpt><trkpt lat="42.64440248919523" lon="11.987788523123033"><ele>326.5</ele><time>2026-04-27T17:12:45Z</time></trkpt><trkpt lat="42.644418373269374" lon="11.987906230392683"><ele>327.0</ele><time>2026-04-27T17:12:46Z</time></trkpt><trkpt lat="42.644484512052166" lon="11.9880031097197"><ele>329.0</ele><time>2026-04-27T17:12:47Z</time></trkpt><trkpt lat="42.644566221990075" lon="11.988040668775806"><ele>331.0</ele><time>2026-04-27T17:12:48Z</time></trkpt><trkpt lat="42.64464290477217" lon="11.98808344672025"><ele>333.0</ele><time>2026-04-27T17:12:49Z</time></trkpt><trkpt lat="42.644729654665085" lon="11.988040869963147"><ele>335.0</ele><time>2026-04-27T17:12:50Z</time></trkpt><trkpt lat="42.64481123083955" lon="11.987976539013317"><ele>337.0</ele><time>2026-04-27T17:12:51Z</time></trkpt><trkpt lat="42.64489356792495" lon="11.987878912811196"><ele>337.0</ele><time>2026-04-27T17:12:52Z</time></trkpt><trkpt lat="42.64498509286728" lon="11.987767903279032"><ele>337.0</ele><time>2026-04-27T17:12:53Z</time></trkpt><trkpt lat="42.645079117453925" lon="11.987661009927793"><ele>337.0</ele><time>2026-04-27T17:12:54Z</time></trkpt><trkpt lat="42.645162804929974" lon="11.987578783580215"><ele>337.0</ele><time>2026-04-27T17:12:55Z</time></trkpt><trkpt lat="42.64524852446006" lon="11.987556468607362"><ele>337.0</ele><time>2026-04-27T17:12:56Z</time></trkpt><trkpt lat="42.64532178870432" lon="11.987571709811323"><ele>338.6</ele><time>2026-04-27T17:12:57Z</time></trkpt><trkpt lat="42.64540340575554" lon="11.987709910222408"><ele>340.20000000000005</ele><time>2026-04-27T17:12:59Z</time></trkpt><trkpt lat="42.645438620560405" lon="11.98781204457503"><ele>341.8</ele><time>2026-04-27T17:13:00Z</time></trkpt><trkpt lat="42.64550503507569" lon="11.987912322932198"><ele>343.4</ele><time>2026-04-27T17:13:01Z</time></trkpt><trkpt lat="42.64559744903214" lon="11.987974211438273"><ele>345.0</ele><time>2026-04-27T17:13:02Z</time></trkpt><trkpt lat="42.645707115331604" lon="11.9879388417643"><ele>345.0</ele><time>2026-04-27T17:13:03Z</time></trkpt><trkpt lat="42.64577608945832" lon="11.98790238736403"><ele>345.0</ele><time>2026-04-27T17:13:04Z</time></trkpt><trkpt lat="42.64582236092407" lon="11.987793420025913"><ele>345.0</ele><time>2026-04-27T17:13:06Z</time></trkpt><trkpt lat="42.64582574782255" lon="11.987684735260007"><ele>345.0</ele><time>2026-04-27T17:13:07Z</time></trkpt><trkpt lat="42.64582845210319" lon="11.987563679044499"><ele>345.0</ele><time>2026-04-27T17:13:08Z</time></trkpt><trkpt lat="42.64580942043901" lon="11.987427827111324"><ele>345.0</ele><time>2026-04-27T17:13:09Z</time></trkpt><trkpt lat="42.6458221314942" lon="11.987312792682182"><ele>345.0</ele><time>2026-04-27T17:13:10Z</time></trkpt><trkpt lat="42.645865715212025" lon="11.987236860301364"><ele>345.0</ele><time>2026-04-27T17:13:11Z</time></trkpt><trkpt lat="42.645933358428" lon="11.987207633288307"><ele>345.0</ele><time>2026-04-27T17:13:12Z</time></trkpt><trkpt lat="42.64601550197617" lon="11.987232609596735"><ele>345.0</ele><time>2026-04-27T17:13:13Z</time></trkpt><trkpt lat="42.646063952203754" lon="11.987324102216776"><ele>345.0</ele><time>2026-04-27T17:13:14Z</time></trkpt><trkpt lat="42.64607814711016" lon="11.98750644131383"><ele>345.0</ele><time>2026-04-27T17:13:16Z</time></trkpt><trkpt lat="42.646063431571434" lon="11.987644486799551"><ele>345.0</ele><time>2026-04-27T17:13:17Z</time></trkpt><trkpt lat="42.64604762876924" lon="11.987777732088402"><ele>345.0</ele><time>2026-04-27T17:13:18Z</time></trkpt><trkpt lat="42.64603282227226" lon="11.987915785751166"><ele>345.0</ele><time>2026-04-27T17:13:19Z</time></trkpt><trkpt lat="42.64602279068743" lon="11.988056959426801"><ele>345.0</ele><time>2026-04-27T17:13:20Z</time></trkpt><trkpt lat="42.64608973154856" lon="11.988188694430967"><ele>345.0</ele><time>2026-04-27T17:13:21Z</time></trkpt><trkpt lat="42.64614235314868" lon="11.988306761054677"><ele>348.6</ele><time>2026-04-27T17:13:22Z</time></trkpt><trkpt lat="42.64621611504778" lon="11.988401447206572"><ele>352.2</ele><time>2026-04-27T17:13:23Z</time></trkpt><trkpt lat="42.64630848369006" lon="11.98848458932559"><ele>355.79999999999995</ele><time>2026-04-27T17:13:24Z</time></trkpt><trkpt lat="42.64639608015252" lon="11.988573998904085"><ele>359.4</ele><time>2026-04-27T17:13:25Z</time></trkpt><trkpt lat="42.646489032275184" lon="11.988658941435533"><ele>363.0</ele><time>2026-04-27T17:13:26Z</time></trkpt><trkpt lat="42.646582317006185" lon="11.988706311283657"><ele>363.0</ele><time>2026-04-27T17:13:27Z</time></trkpt><trkpt lat="42.64667501837091" lon="11.988688774410345"><ele>363.0</ele><time>2026-04-27T17:13:28Z</time></trkpt><trkpt lat="42.64675238237563" lon="11.988609396400323"><ele>363.0</ele><time>2026-04-27T17:13:29Z</time></trkpt><trkpt lat="42.64678773962014" lon="11.988489329946264"><ele>363.0</ele><time>2026-04-27T17:13:30Z</time></trkpt><trkpt lat="42.64678346515718" lon="11.988347728725895"><ele>363.0</ele><time>2026-04-27T17:13:31Z</time></trkpt><trkpt lat="42.646738543239756" lon="11.988222127986209"><ele>361.59999999999997</ele><time>2026-04-27T17:13:32Z</time></trkpt><trkpt lat="42.64665066581847" lon="11.988129756338097"><ele>360.2</ele><time>2026-04-27T17:13:33Z</time></trkpt><trkpt lat="42.64654096452538" lon="11.988075392745595"><ele>358.8</ele><time>2026-04-27T17:13:34Z</time></trkpt><trkpt lat="42.646443486448675" lon="11.987994432529725"><ele>357.4</ele><time>2026-04-27T17:13:35Z</time></trkpt><trkpt lat="42.646371392726074" lon="11.98788894850944"><ele>356.0</ele><time>2026-04-27T17:13:36Z</time></trkpt><trkpt lat="42.64633868957236" lon="11.987768100527816"><ele>356.0</ele><time>2026-04-27T17:13:37Z</time></trkpt><trkpt lat="42.64631900123514" lon="11.987619873194529"><ele>356.0</ele><time>2026-04-27T17:13:38Z</time></trkpt><trkpt lat="42.646303990351434" lon="11.987459928447377"><ele>356.0</ele><time>2026-04-27T17:13:39Z</time></trkpt><trkpt lat="42.64629347474362" lon="11.987276301940327"><ele>356.0</ele><time>2026-04-27T17:13:40Z</time></trkpt><trkpt lat="42.6462817534629" lon="11.987111288003842"><ele>357.25</ele><time>2026-04-27T17:13:41Z</time></trkpt><trkpt lat="42.64626804549407" lon="11.986966244998715"><ele>358.5</ele><time>2026-04-27T17:13:42Z</time></trkpt><trkpt lat="42.64625757245725" lon="11.986811371118419"><ele>359.75</ele><time>2026-04-27T17:13:43Z</time></trkpt><trkpt lat="42.646265241353426" lon="11.986653931229947"><ele>361.0</ele><time>2026-04-27T17:13:44Z</time></trkpt><trkpt lat="42.64627875543335" lon="11.986493556800601"><ele>361.0</ele><time>2026-04-27T17:13:45Z</time></trkpt><trkpt lat="42.64630095179943" lon="11.986352960016267"><ele>361.0</ele><time>2026-04-27T17:13:46Z</time></trkpt><trkpt lat="42.64631817888762" lon="11.986224862216423"><ele>361.0</ele><time>2026-04-27T17:13:47Z</time></trkpt><trkpt lat="42.646326811946345" lon="11.986112818359624"><ele>361.0</ele><time>2026-04-27T17:13:48Z</time></trkpt><trkpt lat="42.64633055078816" lon="11.986014375132788"><ele>361.0</ele><time>2026-04-27T17:13:49Z</time></trkpt><trkpt lat="42.646342636211074" lon="11.98592701215481"><ele>361.0</ele><time>2026-04-27T17:13:50Z</time></trkpt><trkpt lat="42.64639797101077" lon="11.985804731924468"><ele>361.0</ele><time>2026-04-27T17:13:52Z</time></trkpt><trkpt lat="42.64644966791409" lon="11.985744715688064"><ele>361.0</ele><time>2026-04-27T17:13:54Z</time></trkpt><trkpt lat="42.64637549674707" lon="11.9856649128998"><ele>361.0</ele><time>2026-04-27T17:14:00Z</time></trkpt><trkpt lat="42.64640189624941" lon="11.985786124266037"><ele>361.0</ele><time>2026-04-27T17:14:03Z</time></trkpt><trkpt lat="42.64634310186258" lon="11.985856242250872"><ele>361.0</ele><time>2026-04-27T17:14:05Z</time></trkpt><trkpt lat="42.64630798560403" lon="11.985927782817255"><ele>361.0</ele><time>2026-04-27T17:14:07Z</time></trkpt><trkpt lat="42.64627248404378" lon="11.985843758865762"><ele>360.42857142857144</ele><time>2026-04-27T17:14:10Z</time></trkpt><trkpt lat="42.64631238758081" lon="11.985764834878793"><ele>359.85714285714283</ele><time>2026-04-27T17:14:29Z</time></trkpt><trkpt lat="42.646325934553744" lon="11.985673301960553"><ele>359.2857142857143</ele><time>2026-04-27T17:14:39Z</time></trkpt><trkpt lat="42.64636416112521" lon="11.985602565387502"><ele>358.7142857142857</ele><time>2026-04-27T17:15:15Z</time></trkpt><trkpt lat="42.646420341894036" lon="11.98555839044161"><ele>358.1428571428571</ele><time>2026-04-27T17:15:41Z</time></trkpt><trkpt lat="42.646455851995285" lon="11.985633674205642"><ele>357.57142857142856</ele><time>2026-04-27T17:16:26Z</time></trkpt><trkpt lat="42.64650380019462" lon="11.985716284200812"><ele>357.0</ele><time>2026-04-27T17:16:34Z</time></trkpt><trkpt lat="42.646440024127934" lon="11.98580184506545"><ele>357.0</ele><time>2026-04-27T17:17:22.999Z</time></trkpt><trkpt lat="42.646367403944076" lon="11.985802181372794"><ele>357.0</ele><time>2026-04-27T17:17:30.999Z</time></trkpt><trkpt lat="42.646300604974535" lon="11.985817099372257"><ele>357.0</ele><time>2026-04-27T17:17:38.999Z</time></trkpt><trkpt lat="42.646300537066075" lon="11.985714852799104"><ele>357.0</ele><time>2026-04-27T17:18:56Z</time></trkpt><trkpt lat="42.64623681252167" lon="11.985693850716226"><ele>357.0</ele><time>2026-04-27T17:19:03Z</time></trkpt><trkpt lat="42.646171236603635" lon="11.98573141832782"><ele>357.0</ele><time>2026-04-27T17:19:09.999Z</time></trkpt><trkpt lat="42.646105188046405" lon="11.985723207644387"><ele>357.0</ele><time>2026-04-27T17:19:17.999Z</time></trkpt><trkpt lat="42.64617797110293" lon="11.985692574260247"><ele>357.0</ele><time>2026-04-27T17:20:04.999Z</time></trkpt><trkpt lat="42.64611959497422" lon="11.985724755850375"><ele>357.0</ele><time>2026-04-27T17:20:13.999Z</time></trkpt><trkpt lat="42.646054950677105" lon="11.985733519154884"><ele>357.0</ele><time>2026-04-27T17:20:45.999Z</time></trkpt><trkpt lat="42.64611649428649" lon="11.985763160027016"><ele>357.0</ele><time>2026-04-27T17:22:41.999Z</time></trkpt><trkpt lat="42.64617945695402" lon="11.985733689207315"><ele>357.0</ele><time>2026-04-27T17:22:48.999Z</time></trkpt><trkpt lat="42.64623661064426" lon="11.98568069642788"><ele>357.0</ele><time>2026-04-27T17:23:15.999Z</time></trkpt><trkpt lat="42.64625214173028" lon="11.985595338053166"><ele>357.0</ele><time>2026-04-27T17:23:23.999Z</time></trkpt><trkpt lat="42.64625728709205" lon="11.985508610675414"><ele>357.0</ele><time>2026-04-27T17:23:31.999Z</time></trkpt><trkpt lat="42.646206106350874" lon="11.985435415650588"><ele>357.0</ele><time>2026-04-27T17:23:42.999Z</time></trkpt><trkpt lat="42.64615668529856" lon="11.985363854208103"><ele>357.0</ele><time>2026-04-27T17:23:49.999Z</time></trkpt><trkpt lat="42.64618345303999" lon="11.985453264557488"><ele>357.0</ele><time>2026-04-27T17:24:34Z</time></trkpt><trkpt lat="42.64623290258395" lon="11.98552033964076"><ele>357.0</ele><time>2026-04-27T17:24:39Z</time></trkpt><trkpt lat="42.64625581639903" lon="11.985611483563073"><ele>357.0</ele><time>2026-04-27T17:24:45Z</time></trkpt><trkpt lat="42.64626963260115" lon="11.985702671900812"><ele>357.0</ele><time>2026-04-27T17:24:51.999Z</time></trkpt><trkpt lat="42.64628666646403" lon="11.985790533056424"><ele>357.6666666666667</ele><time>2026-04-27T17:24:59.999Z</time></trkpt><trkpt lat="42.646340112148366" lon="11.98585992432479"><ele>358.3333333333333</ele><time>2026-04-27T17:27:26.999Z</time></trkpt><trkpt lat="42.6463082510053" lon="11.986016395711022"><ele>359.0</ele><time>2026-04-27T17:27:28.999Z</time></trkpt><trkpt lat="42.64630354485826" lon="11.986109542109343"><ele>359.66666666666663</ele><time>2026-04-27T17:27:29.999Z</time></trkpt><trkpt lat="42.64629788231035" lon="11.986210224297132"><ele>360.3333333333333</ele><time>2026-04-27T17:27:30.999Z</time></trkpt><trkpt lat="42.64625806118195" lon="11.986321139450487"><ele>361.0</ele><time>2026-04-27T17:27:31.999Z</time></trkpt><trkpt lat="42.64624080863158" lon="11.986442915841629"><ele>361.0</ele><time>2026-04-27T17:27:32.999Z</time></trkpt><trkpt lat="42.64622333596133" lon="11.98658463192215"><ele>361.0</ele><time>2026-04-27T17:27:33.999Z</time></trkpt><trkpt lat="42.64621348726944" lon="11.986753863854446"><ele>361.0</ele><time>2026-04-27T17:27:34.999Z</time></trkpt><trkpt lat="42.64622458263054" lon="11.986958275791526"><ele>361.0</ele><time>2026-04-27T17:27:35.999Z</time></trkpt><trkpt lat="42.646243270628766" lon="11.987152144711619"><ele>361.0</ele><time>2026-04-27T17:27:36.999Z</time></trkpt><trkpt lat="42.6462633950824" lon="11.98737121334936"><ele>361.0</ele><time>2026-04-27T17:27:37.999Z</time></trkpt><trkpt lat="42.64628285739613" lon="11.98756668272385"><ele>361.0</ele><time>2026-04-27T17:27:38.999Z</time></trkpt><trkpt lat="42.64629872336575" lon="11.987726031842495"><ele>361.0</ele><time>2026-04-27T17:27:39.999Z</time></trkpt><trkpt lat="42.64632315786759" lon="11.987857647517346"><ele>359.75</ele><time>2026-04-27T17:27:40.999Z</time></trkpt><trkpt lat="42.646384019073864" lon="11.987993617708776"><ele>358.5</ele><time>2026-04-27T17:27:41.999Z</time></trkpt><trkpt lat="42.64650006068961" lon="11.988094505168005"><ele>357.25</ele><time>2026-04-27T17:27:42.999Z</time></trkpt><trkpt lat="42.646597495490944" lon="11.98818443972306"><ele>356.0</ele><time>2026-04-27T17:27:43.999Z</time></trkpt><trkpt lat="42.64666876917364" lon="11.988259209673831"><ele>356.0</ele><time>2026-04-27T17:27:44.999Z</time></trkpt><trkpt lat="42.64671908291713" lon="11.988338529651607"><ele>356.0</ele><time>2026-04-27T17:27:45.999Z</time></trkpt><trkpt lat="42.64673872295076" lon="11.9885001803646"><ele>356.0</ele><time>2026-04-27T17:27:47.999Z</time></trkpt><trkpt lat="42.646703540272966" lon="11.988581284882484"><ele>356.0</ele><time>2026-04-27T17:27:48.999Z</time></trkpt><trkpt lat="42.64658874792687" lon="11.988623987349962"><ele>356.0</ele><time>2026-04-27T17:27:50.999Z</time></trkpt><trkpt lat="42.64647006590895" lon="11.988580847003961"><ele>356.0</ele><time>2026-04-27T17:27:52.999Z</time></trkpt><trkpt lat="42.64640808575942" lon="11.988537825942714"><ele>356.0</ele><time>2026-04-27T17:27:53.999Z</time></trkpt><trkpt lat="42.64633911576771" lon="11.988475546310077"><ele>356.0</ele><time>2026-04-27T17:27:54.999Z</time></trkpt><trkpt lat="42.64626047877512" lon="11.988390377994397"><ele>356.0</ele><time>2026-04-27T17:27:55.999Z</time></trkpt><trkpt lat="42.64617585959878" lon="11.988288212193835"><ele>356.0</ele><time>2026-04-27T17:27:56.999Z</time></trkpt><trkpt lat="42.64610059787905" lon="11.98819287607264"><ele>353.8</ele><time>2026-04-27T17:27:57.999Z</time></trkpt><trkpt lat="42.64606222420525" lon="11.988080344234948"><ele>351.6</ele><time>2026-04-27T17:27:58.999Z</time></trkpt><trkpt lat="42.646052273472534" lon="11.987954558433694"><ele>349.4</ele><time>2026-04-27T17:27:59.999Z</time></trkpt><trkpt lat="42.64606956507111" lon="11.987817700972753"><ele>347.2</ele><time>2026-04-27T17:28:00.999Z</time></trkpt><trkpt lat="42.64609994170811" lon="11.987647623095361"><ele>345.0</ele><time>2026-04-27T17:28:01.999Z</time></trkpt><trkpt lat="42.646128187915195" lon="11.987483054262704"><ele>344.4</ele><time>2026-04-27T17:28:02.999Z</time></trkpt><trkpt lat="42.64612523579359" lon="11.987358315917932"><ele>343.8</ele><time>2026-04-27T17:28:03.999Z</time></trkpt><trkpt lat="42.64610028614145" lon="11.987259135001134"><ele>343.20000000000005</ele><time>2026-04-27T17:28:04.999Z</time></trkpt><trkpt lat="42.646056897763835" lon="11.987193240352836"><ele>342.6</ele><time>2026-04-27T17:28:05.999Z</time></trkpt><trkpt lat="42.64594148292521" lon="11.987178159893656"><ele>342.0</ele><time>2026-04-27T17:28:07.999Z</time></trkpt><trkpt lat="42.645841127612826" lon="11.98720493049465"><ele>342.0</ele><time>2026-04-27T17:28:09.999Z</time></trkpt><trkpt lat="42.64578046746357" lon="11.987265585084385"><ele>342.0</ele><time>2026-04-27T17:28:11.999Z</time></trkpt><trkpt lat="42.64576871376966" lon="11.987355805487432"><ele>342.0</ele><time>2026-04-27T17:28:15Z</time></trkpt><trkpt lat="42.64577772910865" lon="11.987502242792123"><ele>342.0</ele><time>2026-04-27T17:28:43Z</time></trkpt><trkpt lat="42.64579092367323" lon="11.987626662180105"><ele>342.0</ele><time>2026-04-27T17:28:45Z</time></trkpt><trkpt lat="42.645799510688505" lon="11.987725056897226"><ele>342.0</ele><time>2026-04-27T17:28:47Z</time></trkpt><trkpt lat="42.64576451541424" lon="11.98783023114501"><ele>342.5</ele><time>2026-04-27T17:28:50Z</time></trkpt><trkpt lat="42.645698807415435" lon="11.987877867166576"><ele>343.0</ele><time>2026-04-27T17:28:52Z</time></trkpt><trkpt lat="42.6455978652714" lon="11.987864646511971"><ele>343.5</ele><time>2026-04-27T17:28:54Z</time></trkpt><trkpt lat="42.645540265989375" lon="11.987826993175958"><ele>344.0</ele><time>2026-04-27T17:28:55Z</time></trkpt><trkpt lat="42.645477305803034" lon="11.987768084984012"><ele>344.5</ele><time>2026-04-27T17:28:56Z</time></trkpt><trkpt lat="42.6454317460368" lon="11.987671472203102"><ele>345.0</ele><time>2026-04-27T17:28:57Z</time></trkpt><trkpt lat="42.645380102000566" lon="11.987583079648159"><ele>345.0</ele><time>2026-04-27T17:28:58Z</time></trkpt><trkpt lat="42.64530811330313" lon="11.987527368009978"><ele>345.0</ele><time>2026-04-27T17:28:59Z</time></trkpt><trkpt lat="42.645244782356166" lon="11.987508150324462"><ele>345.0</ele><time>2026-04-27T17:29:00Z</time></trkpt><trkpt lat="42.64518187128314" lon="11.98752671102631"><ele>345.0</ele><time>2026-04-27T17:29:01Z</time></trkpt><trkpt lat="42.64512382445316" lon="11.987574390247516"><ele>345.0</ele><time>2026-04-27T17:29:02Z</time></trkpt><trkpt lat="42.64506865844277" lon="11.987643909682534"><ele>345.0</ele><time>2026-04-27T17:29:03Z</time></trkpt><trkpt lat="42.64500673199895" lon="11.987716901044541"><ele>345.0</ele><time>2026-04-27T17:29:04Z</time></trkpt><trkpt lat="42.64493497971063" lon="11.987792624057436"><ele>343.6666666666667</ele><time>2026-04-27T17:29:05Z</time></trkpt><trkpt lat="42.64485488130133" lon="11.987882336294762"><ele>342.3333333333333</ele><time>2026-04-27T17:29:06Z</time></trkpt><trkpt lat="42.64477592897259" lon="11.987970066296269"><ele>341.0</ele><time>2026-04-27T17:29:07Z</time></trkpt><trkpt lat="42.64470379562231" lon="11.988015574788626"><ele>339.66666666666663</ele><time>2026-04-27T17:29:08Z</time></trkpt><trkpt lat="42.644630687221884" lon="11.988030900799881"><ele>338.3333333333333</ele><time>2026-04-27T17:29:09Z</time></trkpt><trkpt lat="42.64455932672044" lon="11.988011321688537"><ele>337.0</ele><time>2026-04-27T17:29:10Z</time></trkpt><trkpt lat="42.64450082594566" lon="11.987953161808655"><ele>337.00000000000006</ele><time>2026-04-27T17:29:11Z</time></trkpt><trkpt lat="42.644455805067565" lon="11.987877395347626"><ele>337.0</ele><time>2026-04-27T17:29:12Z</time></trkpt><trkpt lat="42.64443868323041" lon="11.987784001446803"><ele>337.0</ele><time>2026-04-27T17:29:13Z</time></trkpt><trkpt lat="42.64444480849597" lon="11.987688767996382"><ele>337.0</ele><time>2026-04-27T17:29:14Z</time></trkpt><trkpt lat="42.64446356449601" lon="11.987590750830174"><ele>337.0</ele><time>2026-04-27T17:29:15Z</time></trkpt><trkpt lat="42.64449087549899" lon="11.98749775817939"><ele>337.00000000000006</ele><time>2026-04-27T17:29:16Z</time></trkpt><trkpt lat="42.6445186167855" lon="11.987415329302767"><ele>337.0</ele><time>2026-04-27T17:29:17Z</time></trkpt><trkpt lat="42.64453901269188" lon="11.987334350670343"><ele>335.66666666666663</ele><time>2026-04-27T17:29:18Z</time></trkpt><trkpt lat="42.64455511599242" lon="11.987245949829456"><ele>334.3333333333333</ele><time>2026-04-27T17:29:19Z</time></trkpt><trkpt lat="42.644573858324826" lon="11.987158378862034"><ele>333.0</ele><time>2026-04-27T17:29:20Z</time></trkpt><trkpt lat="42.64453151701252" lon="11.987067210696"><ele>331.6666666666667</ele><time>2026-04-27T17:29:21Z</time></trkpt><trkpt lat="42.644452807939594" lon="11.986927842734234"><ele>330.33333333333337</ele><time>2026-04-27T17:29:23Z</time></trkpt><trkpt lat="42.64439834276143" lon="11.986839209141667"><ele>329.0</ele><time>2026-04-27T17:29:24Z</time></trkpt><trkpt lat="42.644342525379834" lon="11.986748906450638"><ele>327.2</ele><time>2026-04-27T17:29:25Z</time></trkpt><trkpt lat="42.6442909575834" lon="11.986663079465858"><ele>325.4</ele><time>2026-04-27T17:29:26Z</time></trkpt><trkpt lat="42.644246698926075" lon="11.986589930781962"><ele>323.6</ele><time>2026-04-27T17:29:27Z</time></trkpt><trkpt lat="42.6441688345766" lon="11.986514194161138"><ele>321.8</ele><time>2026-04-27T17:29:29Z</time></trkpt><trkpt lat="42.644039120239725" lon="11.98655782246108"><ele>320.0</ele><time>2026-04-27T17:29:31Z</time></trkpt><trkpt lat="42.643964022284464" lon="11.986641119651226"><ele>319.5</ele><time>2026-04-27T17:29:32Z</time></trkpt><trkpt lat="42.643892538269384" lon="11.98673833200448"><ele>319.0</ele><time>2026-04-27T17:29:33Z</time></trkpt><trkpt lat="42.64380719830891" lon="11.986838820846673"><ele>318.5</ele><time>2026-04-27T17:29:34Z</time></trkpt><trkpt lat="42.643698855215355" lon="11.986949971037863"><ele>318.0</ele><time>2026-04-27T17:29:35Z</time></trkpt><trkpt lat="42.643578062730235" lon="11.98707701629343"><ele>318.0</ele><time>2026-04-27T17:29:36Z</time></trkpt><trkpt lat="42.64345415021162" lon="11.987208070998731"><ele>318.0</ele><time>2026-04-27T17:29:37Z</time></trkpt><trkpt lat="42.64332208166825" lon="11.987345370202075"><ele>318.0</ele><time>2026-04-27T17:29:38Z</time></trkpt><trkpt lat="42.64318720653064" lon="11.987488159880575"><ele>319.0</ele><time>2026-04-27T17:29:39Z</time></trkpt><trkpt lat="42.643049874105515" lon="11.987631039258691"><ele>320.0</ele><time>2026-04-27T17:29:40Z</time></trkpt><trkpt lat="42.64291270414493" lon="11.98777567267488"><ele>321.0</ele><time>2026-04-27T17:29:41Z</time></trkpt><trkpt lat="42.64278625603544" lon="11.98791107021104"><ele>320.5</ele><time>2026-04-27T17:29:42Z</time></trkpt><trkpt lat="42.64266325935682" lon="11.988030989052914"><ele>320.0</ele><time>2026-04-27T17:29:43Z</time></trkpt><trkpt lat="42.64254752911474" lon="11.988143855801"><ele>319.5</ele><time>2026-04-27T17:29:44Z</time></trkpt><trkpt lat="42.64243228586037" lon="11.988266603602769"><ele>319.0</ele><time>2026-04-27T17:29:45Z</time></trkpt><trkpt lat="42.64231840158368" lon="11.988396958075082"><ele>319.0</ele><time>2026-04-27T17:29:46Z</time></trkpt><trkpt lat="42.64221826856779" lon="11.988520910074643"><ele>319.0</ele><time>2026-04-27T17:29:46.999Z</time></trkpt><trkpt lat="42.64213468811078" lon="11.98864784389821"><ele>319.0</ele><time>2026-04-27T17:29:47.999Z</time></trkpt><trkpt lat="42.642058673255015" lon="11.988775065765621"><ele>319.0</ele><time>2026-04-27T17:29:48.999Z</time></trkpt><trkpt lat="42.641976451698696" lon="11.988906021265155"><ele>319.2</ele><time>2026-04-27T17:29:49.999Z</time></trkpt><trkpt lat="42.64189260637955" lon="11.989041798285507"><ele>319.4</ele><time>2026-04-27T17:29:50.999Z</time></trkpt><trkpt lat="42.64181795010396" lon="11.989172216331015"><ele>319.6</ele><time>2026-04-27T17:29:51.999Z</time></trkpt><trkpt lat="42.64175386398538" lon="11.989279073278674"><ele>319.8</ele><time>2026-04-27T17:29:52.999Z</time></trkpt><trkpt lat="42.64170234655004" lon="11.989367811992485"><ele>320.0</ele><time>2026-04-27T17:29:53.999Z</time></trkpt><trkpt lat="42.641673598573725" lon="11.989457082012947"><ele>320.0</ele><time>2026-04-27T17:29:54.999Z</time></trkpt><trkpt lat="42.641672416561136" lon="11.989558075396788"><ele>320.0</ele><time>2026-04-27T17:29:55.999Z</time></trkpt><trkpt lat="42.64167024574304" lon="11.989671080552654"><ele>320.0</ele><time>2026-04-27T17:29:56.999Z</time></trkpt><trkpt lat="42.64167194704509" lon="11.989767411162061"><ele>320.0</ele><time>2026-04-27T17:29:57.999Z</time></trkpt><trkpt lat="42.64186741488505" lon="11.98978511384046"><ele>320.0</ele><time>2026-04-27T17:30:01.999Z</time></trkpt><trkpt lat="42.64192694060317" lon="11.989718764109059"><ele>320.6</ele><time>2026-04-27T17:30:02.999Z</time></trkpt><trkpt lat="42.64200005074771" lon="11.98966489388954"><ele>321.2</ele><time>2026-04-27T17:30:03.999Z</time></trkpt><trkpt lat="42.642084904459225" lon="11.989598940564962"><ele>321.79999999999995</ele><time>2026-04-27T17:30:04.999Z</time></trkpt><trkpt lat="42.642171058242866" lon="11.98952997068799"><ele>322.4</ele><time>2026-04-27T17:30:05.999Z</time></trkpt><trkpt lat="42.64226131770563" lon="11.98945927489861"><ele>323.0</ele><time>2026-04-27T17:30:06.999Z</time></trkpt><trkpt lat="42.64234799382628" lon="11.989392924454513"><ele>323.0</ele><time>2026-04-27T17:30:07.999Z</time></trkpt><trkpt lat="42.642428818621646" lon="11.98933150030424"><ele>323.0</ele><time>2026-04-27T17:30:08.999Z</time></trkpt><trkpt lat="42.64250161604064" lon="11.98927436940817"><ele>323.0</ele><time>2026-04-27T17:30:09.999Z</time></trkpt><trkpt lat="42.64256279705275" lon="11.989225296725508"><ele>323.0</ele><time>2026-04-27T17:30:10.999Z</time></trkpt><trkpt lat="42.642639419558634" lon="11.989170409247755"><ele>323.0</ele><time>2026-04-27T17:30:12.999Z</time></trkpt><trkpt lat="42.64271067709762" lon="11.989135019642234"><ele>323.0</ele><time>2026-04-27T17:30:23Z</time></trkpt><trkpt lat="42.642769254947574" lon="11.989093832891003"><ele>323.33333333333337</ele><time>2026-04-27T17:30:25Z</time></trkpt><trkpt lat="42.642842680564435" lon="11.989044118359269"><ele>323.6666666666667</ele><time>2026-04-27T17:30:28Z</time></trkpt><trkpt lat="42.64289966292516" lon="11.98900605712788"><ele>324.0</ele><time>2026-04-27T17:30:31Z</time></trkpt><trkpt lat="42.64296721026385" lon="11.988964763840178"><ele>324.3333333333333</ele><time>2026-04-27T17:30:36Z</time></trkpt><trkpt lat="42.64304544140317" lon="11.988921323542593"><ele>324.66666666666663</ele><time>2026-04-27T17:30:39Z</time></trkpt><trkpt lat="42.643118617628296" lon="11.98888397170042"><ele>325.0</ele><time>2026-04-27T17:30:43Z</time></trkpt><trkpt lat="42.643219656345615" lon="11.988840083226414"><ele>325.0</ele><time>2026-04-27T17:30:46Z</time></trkpt><trkpt lat="42.643324553638955" lon="11.988814289655922"><ele>325.0</ele><time>2026-04-27T17:30:48Z</time></trkpt><trkpt lat="42.64343660601036" lon="11.98880054303059"><ele>325.0</ele><time>2026-04-27T17:30:50Z</time></trkpt><trkpt lat="42.643545850745724" lon="11.988821418144173"><ele>325.0</ele><time>2026-04-27T17:30:52Z</time></trkpt><trkpt lat="42.643611760232474" lon="11.988878992792133"><ele>325.0</ele><time>2026-04-27T17:30:55Z</time></trkpt><trkpt lat="42.64367467565505" lon="11.988939783710608"><ele>326.75</ele><time>2026-04-27T17:30:57Z</time></trkpt><trkpt lat="42.6437974028776" lon="11.988789634566045"><ele>328.5</ele><time>2026-04-27T17:30:59Z</time></trkpt><trkpt lat="42.64385631786778" lon="11.988678113646879"><ele>330.25</ele><time>2026-04-27T17:31:00Z</time></trkpt><trkpt lat="42.64393926647247" lon="11.988579127338337"><ele>332.0</ele><time>2026-04-27T17:31:01Z</time></trkpt><trkpt lat="42.64399867817426" lon="11.988485248150647"><ele>332.0</ele><time>2026-04-27T17:31:02Z</time></trkpt><trkpt lat="42.64405320541335" lon="11.988401088697229"><ele>332.0</ele><time>2026-04-27T17:31:03Z</time></trkpt><trkpt lat="42.6441131970507" lon="11.988319207294538"><ele>332.0</ele><time>2026-04-27T17:31:04Z</time></trkpt><trkpt lat="42.6441754395108" lon="11.988222518706676"><ele>332.0</ele><time>2026-04-27T17:31:05Z</time></trkpt><trkpt lat="42.644247450434605" lon="11.988161271156798"><ele>332.0</ele><time>2026-04-27T17:31:06Z</time></trkpt><trkpt lat="42.644305171917374" lon="11.988115610873887"><ele>332.0</ele><time>2026-04-27T17:31:07Z</time></trkpt><trkpt lat="42.644372705383404" lon="11.988028961701291"><ele>331.5</ele><time>2026-04-27T17:31:09Z</time></trkpt><trkpt lat="42.644424664268456" lon="11.987948405024486"><ele>331.0</ele><time>2026-04-27T17:31:11Z</time></trkpt><trkpt lat="42.64447300324229" lon="11.98779593200694"><ele>330.5</ele><time>2026-04-27T17:31:14Z</time></trkpt><trkpt lat="42.64448023924568" lon="11.987677149653122"><ele>330.0</ele><time>2026-04-27T17:31:15Z</time></trkpt><trkpt lat="42.64449508361735" lon="11.987574366318098"><ele>329.5</ele><time>2026-04-27T17:31:16Z</time></trkpt><trkpt lat="42.644518045352825" lon="11.987467021614659"><ele>329.0</ele><time>2026-04-27T17:31:17Z</time></trkpt><trkpt lat="42.64453921423193" lon="11.987374407716251"><ele>329.0</ele><time>2026-04-27T17:31:18Z</time></trkpt><trkpt lat="42.64455804925344" lon="11.987289969002193"><ele>329.0</ele><time>2026-04-27T17:31:19Z</time></trkpt><trkpt lat="42.644563358504726" lon="11.987201861599905"><ele>329.0</ele><time>2026-04-27T17:31:20Z</time></trkpt><trkpt lat="42.644519614410136" lon="11.987041268081333"><ele>329.0</ele><time>2026-04-27T17:31:22Z</time></trkpt><trkpt lat="42.64447687837713" lon="11.986961090968991"><ele>329.0</ele><time>2026-04-27T17:31:23Z</time></trkpt><trkpt lat="42.644425138684795" lon="11.986880662968968"><ele>329.0</ele><time>2026-04-27T17:31:24Z</time></trkpt><trkpt lat="42.6443733720398" lon="11.9867947701497"><ele>328.1666666666667</ele><time>2026-04-27T17:31:25Z</time></trkpt><trkpt lat="42.64432555857238" lon="11.986713842131913"><ele>327.33333333333337</ele><time>2026-04-27T17:31:26Z</time></trkpt><trkpt lat="42.644267643073675" lon="11.98659499147899"><ele>326.5</ele><time>2026-04-27T17:31:28Z</time></trkpt><trkpt lat="42.644248429691196" lon="11.986496785786438"><ele>325.6666666666667</ele><time>2026-04-27T17:31:31Z</time></trkpt><trkpt lat="42.64424139191459" lon="11.986408369326943"><ele>324.8333333333333</ele><time>2026-04-27T17:32:16.999Z</time></trkpt><trkpt lat="42.6442183336614" lon="11.986271288727766"><ele>324.0</ele><time>2026-04-27T17:32:18.999Z</time></trkpt><trkpt lat="42.64428183145853" lon="11.986169946544903"><ele>324.3333333333333</ele><time>2026-04-27T17:32:19.999Z</time></trkpt><trkpt lat="42.644305367978035" lon="11.986062867762918"><ele>324.6666666666667</ele><time>2026-04-27T17:32:20.999Z</time></trkpt><trkpt lat="42.644325798914146" lon="11.985972311389082"><ele>325.0</ele><time>2026-04-27T17:32:21.999Z</time></trkpt><trkpt lat="42.6443620593756" lon="11.985840993810667"><ele>325.33333333333337</ele><time>2026-04-27T17:32:23.999Z</time></trkpt><trkpt lat="42.644395626072146" lon="11.98574258002924"><ele>325.6666666666667</ele><time>2026-04-27T17:32:26Z</time></trkpt><trkpt lat="42.64444979176857" lon="11.9856392851161"><ele>326.0</ele><time>2026-04-27T17:32:28Z</time></trkpt><trkpt lat="42.64449070561717" lon="11.985568498859084"><ele>326.0</ele><time>2026-04-27T17:32:29Z</time></trkpt><trkpt lat="42.64453887483825" lon="11.985496380743047"><ele>326.0</ele><time>2026-04-27T17:32:30Z</time></trkpt><trkpt lat="42.64459412997281" lon="11.985419944968214"><ele>326.0</ele><time>2026-04-27T17:32:31Z</time></trkpt><trkpt lat="42.644654350111246" lon="11.985337255664062"><ele>326.0</ele><time>2026-04-27T17:32:32Z</time></trkpt><trkpt lat="42.64471984075204" lon="11.985255043570493"><ele>326.0</ele><time>2026-04-27T17:32:33Z</time></trkpt><trkpt lat="42.644789057687376" lon="11.985175018444771"><ele>326.0</ele><time>2026-04-27T17:32:34Z</time></trkpt><trkpt lat="42.64486286122159" lon="11.985087141383516"><ele>324.5</ele><time>2026-04-27T17:32:35Z</time></trkpt><trkpt lat="42.64493330643829" lon="11.984990564285763"><ele>323.0</ele><time>2026-04-27T17:32:36Z</time></trkpt><trkpt lat="42.644997658237195" lon="11.984894000374137"><ele>321.5</ele><time>2026-04-27T17:32:37Z</time></trkpt><trkpt lat="42.64505602687709" lon="11.984798977122345"><ele>320.0</ele><time>2026-04-27T17:32:38Z</time></trkpt><trkpt lat="42.645104256110464" lon="11.984703485907172"><ele>318.5</ele><time>2026-04-27T17:32:39Z</time></trkpt><trkpt lat="42.64514161883696" lon="11.984615444684026"><ele>317.0</ele><time>2026-04-27T17:32:40Z</time></trkpt><trkpt lat="42.64519828480568" lon="11.984514526217101"><ele>317.0</ele><time>2026-04-27T17:32:42Z</time></trkpt><trkpt lat="42.64526575468829" lon="11.984491845386177"><ele>317.0</ele><time>2026-04-27T17:32:45Z</time></trkpt><trkpt lat="42.64534632278235" lon="11.984688231962494"><ele>317.0</ele><time>2026-04-27T17:33:44.999Z</time></trkpt><trkpt lat="42.6454048843691" lon="11.984720482515975"><ele>317.0</ele><time>2026-04-27T17:33:49.999Z</time></trkpt><trkpt lat="42.6454671604693" lon="11.984750021797156"><ele>317.0</ele><time>2026-04-27T17:34:01.999Z</time></trkpt><trkpt lat="42.64553871654813" lon="11.984779114272087"><ele>317.0</ele><time>2026-04-27T17:34:06.999Z</time></trkpt><trkpt lat="42.645602173413614" lon="11.984824087613294"><ele>318.8571428571429</ele><time>2026-04-27T17:34:12.999Z</time></trkpt><trkpt lat="42.64568336313573" lon="11.984854734456647"><ele>320.7142857142857</ele><time>2026-04-27T17:34:27.999Z</time></trkpt><trkpt lat="42.645624929546706" lon="11.984896795196045"><ele>322.57142857142856</ele><time>2026-04-27T17:35:25Z</time></trkpt><trkpt lat="42.645570021680115" lon="11.984830209464233"><ele>324.42857142857144</ele><time>2026-04-27T17:36:18.999Z</time></trkpt><trkpt lat="42.645504745033584" lon="11.984787622421642"><ele>326.2857142857143</ele><time>2026-04-27T17:36:23.999Z</time></trkpt><trkpt lat="42.645451804386525" lon="11.984737464814847"><ele>328.14285714285717</ele><time>2026-04-27T17:36:27.999Z</time></trkpt><trkpt lat="42.645391241128216" lon="11.984704283035969"><ele>330.0</ele><time>2026-04-27T17:36:33.999Z</time></trkpt><trkpt lat="42.645327830527506" lon="11.984648704279332"><ele>330.0</ele><time>2026-04-27T17:36:40Z</time></trkpt><trkpt lat="42.64525797287566" lon="11.984616148338773"><ele>330.0</ele><time>2026-04-27T17:39:19.999Z</time></trkpt><trkpt lat="42.64520575984891" lon="11.984556893785768"><ele>330.0</ele><time>2026-04-27T17:39:22.999Z</time></trkpt><trkpt lat="42.64521386917776" lon="11.98443663937096"><ele>330.0</ele><time>2026-04-27T17:39:25.999Z</time></trkpt><trkpt lat="42.645278108095056" lon="11.984305528870438"><ele>330.0</ele><time>2026-04-27T17:39:27.999Z</time></trkpt><trkpt lat="42.64533745160791" lon="11.98423131078456"><ele>330.0</ele><time>2026-04-27T17:39:28.999Z</time></trkpt><trkpt lat="42.645401379466996" lon="11.984132160494308"><ele>328.0</ele><time>2026-04-27T17:39:29.999Z</time></trkpt><trkpt lat="42.64547824656415" lon="11.984023762329057"><ele>326.0</ele><time>2026-04-27T17:39:30.999Z</time></trkpt><trkpt lat="42.64556177058203" lon="11.983908752481462"><ele>324.0</ele><time>2026-04-27T17:39:31.999Z</time></trkpt><trkpt lat="42.645633585044294" lon="11.983811089167641"><ele>322.0</ele><time>2026-04-27T17:39:32.999Z</time></trkpt><trkpt lat="42.64569364401055" lon="11.98374338446257"><ele>320.0</ele><time>2026-04-27T17:39:33.999Z</time></trkpt><trkpt lat="42.64577494324451" lon="11.983698690079562"><ele>320.0</ele><time>2026-04-27T17:39:34.999Z</time></trkpt><trkpt lat="42.645879914308914" lon="11.983680853703468"><ele>320.0</ele><time>2026-04-27T17:39:35.999Z</time></trkpt><trkpt lat="42.64600174084501" lon="11.983665648912254"><ele>320.0</ele><time>2026-04-27T17:39:36.999Z</time></trkpt><trkpt lat="42.64609150571455" lon="11.983638528242428"><ele>320.0</ele><time>2026-04-27T17:39:37.999Z</time></trkpt><trkpt lat="42.64618018883294" lon="11.98367300486164"><ele>320.0</ele><time>2026-04-27T17:39:39.999Z</time></trkpt><trkpt lat="42.646204450783564" lon="11.98381649870395"><ele>320.0</ele><time>2026-04-27T17:39:41.999Z</time></trkpt><trkpt lat="42.64619283270474" lon="11.983932979437148"><ele>320.0</ele><time>2026-04-27T17:39:43.999Z</time></trkpt><trkpt lat="42.64615802647558" lon="11.984049373639838"><ele>320.0</ele><time>2026-04-27T17:40:43.999Z</time></trkpt><trkpt lat="42.646099883396765" lon="11.984083315001325"><ele>320.0</ele><time>2026-04-27T17:40:49.999Z</time></trkpt><trkpt lat="42.64614732291422" lon="11.984020901371354"><ele>320.0</ele><time>2026-04-27T17:41:29.999Z</time></trkpt><trkpt lat="42.64617287697833" lon="11.983933118260499"><ele>320.0</ele><time>2026-04-27T17:41:34.999Z</time></trkpt><trkpt lat="42.64624278103057" lon="11.983944633855641"><ele>320.0</ele><time>2026-04-27T17:41:45.999Z</time></trkpt><trkpt lat="42.646237745757524" lon="11.984051066941761"><ele>321.4</ele><time>2026-04-27T17:41:47.999Z</time></trkpt><trkpt lat="42.646260618236056" lon="11.984161202289847"><ele>322.8</ele><time>2026-04-27T17:41:51.999Z</time></trkpt><trkpt lat="42.6463257989617" lon="11.98424605211112"><ele>324.20000000000005</ele><time>2026-04-27T17:41:52.999Z</time></trkpt><trkpt lat="42.646411798071206" lon="11.984356656322777"><ele>325.6</ele><time>2026-04-27T17:41:54.999Z</time></trkpt><trkpt lat="42.64641037870387" lon="11.984459119873348"><ele>327.0</ele><time>2026-04-27T17:41:57.999Z</time></trkpt><trkpt lat="42.64647161116034" lon="11.984534289842259"><ele>329.5</ele><time>2026-04-27T17:41:58.999Z</time></trkpt><trkpt lat="42.64654987094736" lon="11.984648021103352"><ele>332.0</ele><time>2026-04-27T17:41:59.999Z</time></trkpt><trkpt lat="42.646617217062705" lon="11.98469281115479"><ele>334.5</ele><time>2026-04-27T17:42:00.999Z</time></trkpt><trkpt lat="42.646677127010044" lon="11.984772997332474"><ele>337.0</ele><time>2026-04-27T17:42:02.999Z</time></trkpt><trkpt lat="42.64672234448028" lon="11.98483744692556"><ele>339.5</ele><time>2026-04-27T17:42:03.999Z</time></trkpt><trkpt lat="42.64676812689278" lon="11.984946092415102"><ele>342.0</ele><time>2026-04-27T17:42:05.999Z</time></trkpt><trkpt lat="42.646707472569624" lon="11.985009863511591"><ele>344.5</ele><time>2026-04-27T17:42:07.999Z</time></trkpt><trkpt lat="42.64658781650484" lon="11.985017701420867"><ele>347.0</ele><time>2026-04-27T17:42:09.999Z</time></trkpt><trkpt lat="42.64651041933774" lon="11.985017504332847"><ele>349.5</ele><time>2026-04-27T17:42:10.999Z</time></trkpt><trkpt lat="42.646428311929135" lon="11.985034569822346"><ele>352.0</ele><time>2026-04-27T17:42:11.999Z</time></trkpt><trkpt lat="42.64635767811656" lon="11.985055464183304"><ele>354.5</ele><time>2026-04-27T17:42:12.999Z</time></trkpt><trkpt lat="42.64629614947522" lon="11.985078829484788"><ele>357.0</ele><time>2026-04-27T17:42:13.999Z</time></trkpt><trkpt lat="42.646234606267875" lon="11.98511798679443"><ele>357.0</ele><time>2026-04-27T17:42:15.999Z</time></trkpt><trkpt lat="42.64630478280837" lon="11.985102428671125"><ele>357.0</ele><time>2026-04-27T17:42:45.999Z</time></trkpt><trkpt lat="42.64639509235038" lon="11.985038670788096"><ele>357.0</ele><time>2026-04-27T17:42:47.999Z</time></trkpt><trkpt lat="42.646468559141425" lon="11.985043887773573"><ele>357.0</ele><time>2026-04-27T17:42:48.999Z</time></trkpt><trkpt lat="42.64653367333348" lon="11.985040012604497"><ele>357.0</ele><time>2026-04-27T17:42:49.999Z</time></trkpt><trkpt lat="42.64663219596638" lon="11.985033670343498"><ele>357.0</ele><time>2026-04-27T17:42:50.999Z</time></trkpt><trkpt lat="42.64670589604769" lon="11.985007568691222"><ele>354.0</ele><time>2026-04-27T17:42:51.999Z</time></trkpt><trkpt lat="42.646815026982004" lon="11.98495341998302"><ele>351.0</ele><time>2026-04-27T17:42:53.999Z</time></trkpt><trkpt lat="42.64681102234252" lon="11.984864779086978"><ele>348.0</ele><time>2026-04-27T17:42:54.999Z</time></trkpt><trkpt lat="42.646714904954145" lon="11.98474371414114"><ele>345.0</ele><time>2026-04-27T17:42:56.999Z</time></trkpt><trkpt lat="42.64662255035562" lon="11.984667962002352"><ele>342.0</ele><time>2026-04-27T17:42:57.999Z</time></trkpt><trkpt lat="42.64655661624857" lon="11.98459515335222"><ele>341.99999999999994</ele><time>2026-04-27T17:42:58.999Z</time></trkpt><trkpt lat="42.646509727502455" lon="11.984531915454202"><ele>342.0</ele><time>2026-04-27T17:43:00.999Z</time></trkpt><trkpt lat="42.646460167104024" lon="11.98446023346185"><ele>342.0</ele><time>2026-04-27T17:43:10.999Z</time></trkpt><trkpt lat="42.64640328332856" lon="11.984399051879816"><ele>342.0</ele><time>2026-04-27T17:43:14.999Z</time></trkpt><trkpt lat="42.64644510367474" lon="11.984480395551891"><ele>342.0</ele><time>2026-04-27T17:43:30.999Z</time></trkpt><trkpt lat="42.646502629011216" lon="11.984515390324324"><ele>341.99999999999994</ele><time>2026-04-27T17:43:34.999Z</time></trkpt><trkpt lat="42.64648591449773" lon="11.984604987729847"><ele>342.0</ele><time>2026-04-27T17:44:08.999Z</time></trkpt><trkpt lat="42.646550024698854" lon="11.984589894770542"><ele>342.0</ele><time>2026-04-27T17:45:10.999Z</time></trkpt><trkpt lat="42.64649546158888" lon="11.984536392258219"><ele>342.0</ele><time>2026-04-27T17:46:19.999Z</time></trkpt><trkpt lat="42.64643939488268" lon="11.984482467159674"><ele>342.0</ele><time>2026-04-27T17:46:26.999Z</time></trkpt><trkpt lat="42.646388055862005" lon="11.984418993797822"><ele>342.0</ele><time>2026-04-27T17:47:56.999Z</time></trkpt><trkpt lat="42.64631393462975" lon="11.984319992426336"><ele>342.0</ele><time>2026-04-27T17:47:59.999Z</time></trkpt><trkpt lat="42.64625911909617" lon="11.984258826608606"><ele>342.0</ele><time>2026-04-27T17:48:01.999Z</time></trkpt><trkpt lat="42.646222442830805" lon="11.984172276098096"><ele>339.5</ele><time>2026-04-27T17:48:04.999Z</time></trkpt><trkpt lat="42.64618813295523" lon="11.984063932446192"><ele>337.0</ele><time>2026-04-27T17:48:06.999Z</time></trkpt><trkpt lat="42.64625954346812" lon="11.983973776911954"><ele>334.5</ele><time>2026-04-27T17:48:08.999Z</time></trkpt><trkpt lat="42.646321985840636" lon="11.98391631057843"><ele>332.0</ele><time>2026-04-27T17:48:11.999Z</time></trkpt><trkpt lat="42.646343259118964" lon="11.98383395930653"><ele>329.5</ele><time>2026-04-27T17:50:19Z</time></trkpt><trkpt lat="42.64627247785946" lon="11.983700897530372"><ele>327.0</ele><time>2026-04-27T17:50:21Z</time></trkpt><trkpt lat="42.64619816945009" lon="11.983610694513237"><ele>327.0</ele><time>2026-04-27T17:50:23Z</time></trkpt><trkpt lat="42.646233792728474" lon="11.983499758337205"><ele>327.0</ele><time>2026-04-27T17:50:25Z</time></trkpt><trkpt lat="42.64626738962151" lon="11.98342280294671"><ele>327.0</ele><time>2026-04-27T17:50:26Z</time></trkpt><trkpt lat="42.64628593282589" lon="11.983331397762596"><ele>327.0</ele><time>2026-04-27T17:50:27Z</time></trkpt><trkpt lat="42.64631458688418" lon="11.98322504517944"><ele>327.0</ele><time>2026-04-27T17:50:28Z</time></trkpt><trkpt lat="42.646328921729534" lon="11.983136323940276"><ele>327.0</ele><time>2026-04-27T17:50:29Z</time></trkpt><trkpt lat="42.646360295725096" lon="11.982995331031871"><ele>326.0</ele><time>2026-04-27T17:50:31Z</time></trkpt><trkpt lat="42.64640087410149" lon="11.982882488467144"><ele>325.0</ele><time>2026-04-27T17:50:33Z</time></trkpt><trkpt lat="42.64644012565495" lon="11.98278691788626"><ele>324.0</ele><time>2026-04-27T17:50:35Z</time></trkpt><trkpt lat="42.64637061696474" lon="11.982744287299964"><ele>323.0</ele><time>2026-04-27T17:50:41Z</time></trkpt><trkpt lat="42.646284874180346" lon="11.98282664549519"><ele>322.0</ele><time>2026-04-27T17:50:43Z</time></trkpt><trkpt lat="42.64622593842887" lon="11.982904540652564"><ele>321.0</ele><time>2026-04-27T17:50:44Z</time></trkpt><trkpt lat="42.64614899307684" lon="11.982994754625697"><ele>320.75</ele><time>2026-04-27T17:50:45Z</time></trkpt><trkpt lat="42.64606388844197" lon="11.983119271499906"><ele>320.5</ele><time>2026-04-27T17:50:46Z</time></trkpt><trkpt lat="42.64597136181444" lon="11.983249748249131"><ele>320.25</ele><time>2026-04-27T17:50:47Z</time></trkpt><trkpt lat="42.64586737900538" lon="11.983398489491345"><ele>320.0</ele><time>2026-04-27T17:50:48Z</time></trkpt><trkpt lat="42.645773961330065" lon="11.983536926085561"><ele>320.0</ele><time>2026-04-27T17:50:49Z</time></trkpt><trkpt lat="42.64569432698732" lon="11.983649441851352"><ele>320.0</ele><time>2026-04-27T17:50:50Z</time></trkpt><trkpt lat="42.64562374938835" lon="11.983764464401169"><ele>320.0</ele><time>2026-04-27T17:50:51Z</time></trkpt><trkpt lat="42.645547413838074" lon="11.983881490175287"><ele>320.0</ele><time>2026-04-27T17:50:52Z</time></trkpt><trkpt lat="42.64545302487751" lon="11.983999169786603"><ele>320.0</ele><time>2026-04-27T17:50:53Z</time></trkpt><trkpt lat="42.64536830586689" lon="11.98411884051246"><ele>320.0</ele><time>2026-04-27T17:50:54Z</time></trkpt><trkpt lat="42.64529616785655" lon="11.984224688423259"><ele>320.0</ele><time>2026-04-27T17:50:55Z</time></trkpt><trkpt lat="42.64523044494055" lon="11.984327608744179"><ele>320.0</ele><time>2026-04-27T17:50:56Z</time></trkpt><trkpt lat="42.645167668831625" lon="11.984466828435133"><ele>320.0</ele><time>2026-04-27T17:50:57Z</time></trkpt><trkpt lat="42.645116402119946" lon="11.98459306652159"><ele>319.4</ele><time>2026-04-27T17:50:58Z</time></trkpt><trkpt lat="42.645057813433766" lon="11.984711835112313"><ele>318.8</ele><time>2026-04-27T17:50:59Z</time></trkpt><trkpt lat="42.64498698276903" lon="11.984834609809774"><ele>318.2</ele><time>2026-04-27T17:51:00Z</time></trkpt><trkpt lat="42.64490873192851" lon="11.98494964982013"><ele>317.6</ele><time>2026-04-27T17:51:01Z</time></trkpt><trkpt lat="42.64483349480882" lon="11.985038443439077"><ele>317.0</ele><time>2026-04-27T17:51:02Z</time></trkpt><trkpt lat="42.64476003550533" lon="11.985134823905632"><ele>317.1666666666667</ele><time>2026-04-27T17:51:03Z</time></trkpt><trkpt lat="42.64470517942073" lon="11.985202507838222"><ele>317.33333333333337</ele><time>2026-04-27T17:51:04Z</time></trkpt><trkpt lat="42.64464979052291" lon="11.985248138676578"><ele>317.5</ele><time>2026-04-27T17:51:24.999Z</time></trkpt><trkpt lat="42.64454212184579" lon="11.985389324205208"><ele>317.6666666666667</ele><time>2026-04-27T17:52:16Z</time></trkpt><trkpt lat="42.64449247807759" lon="11.98545637172393"><ele>317.8333333333333</ele><time>2026-04-27T17:52:17Z</time></trkpt><trkpt lat="42.64444661182689" lon="11.985538053572661"><ele>318.0</ele><time>2026-04-27T17:52:18Z</time></trkpt><trkpt lat="42.644407856518704" lon="11.985636557580483"><ele>318.0</ele><time>2026-04-27T17:52:19Z</time></trkpt><trkpt lat="42.644359960929165" lon="11.98574460799406"><ele>318.0</ele><time>2026-04-27T17:52:20Z</time></trkpt><trkpt lat="42.64432349371368" lon="11.98583886240654"><ele>318.0</ele><time>2026-04-27T17:52:21Z</time></trkpt><trkpt lat="42.64429186795897" lon="11.98591927703542"><ele>318.0</ele><time>2026-04-27T17:52:22Z</time></trkpt><trkpt lat="42.644255114053806" lon="11.986034185796825"><ele>318.0</ele><time>2026-04-27T17:52:24Z</time></trkpt><trkpt lat="42.64422569696073" lon="11.986118294245118"><ele>318.0</ele><time>2026-04-27T17:52:26Z</time></trkpt><trkpt lat="42.64420461191045" lon="11.986213216870485"><ele>318.3333333333333</ele><time>2026-04-27T17:52:29Z</time></trkpt><trkpt lat="42.64415443320711" lon="11.986334781781771"><ele>318.6666666666667</ele><time>2026-04-27T17:52:34Z</time></trkpt><trkpt lat="42.644092319804415" lon="11.986353593842477"><ele>319.0</ele><time>2026-04-27T17:52:35Z</time></trkpt><trkpt lat="42.64397757885079" lon="11.986306823045568"><ele>319.33333333333337</ele><time>2026-04-27T17:52:37Z</time></trkpt><trkpt lat="42.64392081348144" lon="11.98623163017361"><ele>319.6666666666667</ele><time>2026-04-27T17:52:38Z</time></trkpt><trkpt lat="42.64386547196322" lon="11.986159218919754"><ele>320.0</ele><time>2026-04-27T17:52:39Z</time></trkpt><trkpt lat="42.64380902131492" lon="11.986085356198373"><ele>320.0</ele><time>2026-04-27T17:52:40Z</time></trkpt><trkpt lat="42.64372982093117" lon="11.985980288074167"><ele>320.0</ele><time>2026-04-27T17:52:41Z</time></trkpt><trkpt lat="42.643631756516875" lon="11.985850015844845"><ele>320.0</ele><time>2026-04-27T17:52:42Z</time></trkpt><trkpt lat="42.64353937728633" lon="11.985715169309143"><ele>320.0</ele><time>2026-04-27T17:52:43Z</time></trkpt><trkpt lat="42.64344720746467" lon="11.985579147004433"><ele>319.0</ele><time>2026-04-27T17:52:44Z</time></trkpt><trkpt lat="42.6433406652432" lon="11.985463816895368"><ele>318.0</ele><time>2026-04-27T17:52:45Z</time></trkpt><trkpt lat="42.643245822626135" lon="11.98530998349197"><ele>317.0</ele><time>2026-04-27T17:52:46Z</time></trkpt><trkpt lat="42.64313345021062" lon="11.985170898321382"><ele>316.0</ele><time>2026-04-27T17:52:47Z</time></trkpt><trkpt lat="42.643027595246764" lon="11.98503791778976"><ele>316.0</ele><time>2026-04-27T17:52:48Z</time></trkpt><trkpt lat="42.64292846757494" lon="11.984900046156358"><ele>316.0</ele><time>2026-04-27T17:52:49Z</time></trkpt><trkpt lat="42.642830489045764" lon="11.984780052450764"><ele>316.0</ele><time>2026-04-27T17:52:50Z</time></trkpt><trkpt lat="42.64273430656918" lon="11.984658941937619"><ele>316.0</ele><time>2026-04-27T17:52:51Z</time></trkpt><trkpt lat="42.642648002989816" lon="11.984549827807564"><ele>315.2</ele><time>2026-04-27T17:52:52Z</time></trkpt><trkpt lat="42.64256472811935" lon="11.98444442574865"><ele>314.40000000000003</ele><time>2026-04-27T17:52:53Z</time></trkpt><trkpt lat="42.64248619341667" lon="11.984344771675397"><ele>313.6</ele><time>2026-04-27T17:52:54Z</time></trkpt><trkpt lat="42.642411558790165" lon="11.98424722654643"><ele>312.8</ele><time>2026-04-27T17:52:55Z</time></trkpt><trkpt lat="42.6423378199333" lon="11.98416182154339"><ele>312.0</ele><time>2026-04-27T17:52:56Z</time></trkpt><trkpt lat="42.64226993601325" lon="11.984066363250514"><ele>312.0</ele><time>2026-04-27T17:52:57Z</time></trkpt><trkpt lat="42.642205624397924" lon="11.983978190263365"><ele>312.0</ele><time>2026-04-27T17:52:58Z</time></trkpt><trkpt lat="42.642139187168105" lon="11.983898855118195"><ele>312.0</ele><time>2026-04-27T17:52:59Z</time></trkpt><trkpt lat="42.6420791443109" lon="11.983823513695413"><ele>312.0</ele><time>2026-04-27T17:53:00Z</time></trkpt><trkpt lat="42.64202161795652" lon="11.983745181203785"><ele>312.0</ele><time>2026-04-27T17:53:01Z</time></trkpt><trkpt lat="42.641969678059525" lon="11.983676245783707"><ele>312.0</ele><time>2026-04-27T17:53:02Z</time></trkpt><trkpt lat="42.641918113473615" lon="11.983607269019599"><ele>311.5</ele><time>2026-04-27T17:53:03Z</time></trkpt><trkpt lat="42.641865588394495" lon="11.983543036457558"><ele>311.0</ele><time>2026-04-27T17:53:04Z</time></trkpt><trkpt lat="42.64181868540171" lon="11.983479638646605"><ele>310.5</ele><time>2026-04-27T17:53:05Z</time></trkpt><trkpt lat="42.641773133745055" lon="11.983415415774495"><ele>310.0</ele><time>2026-04-27T17:53:06Z</time></trkpt><trkpt lat="42.64169057287205" lon="11.983303945569098"><ele>309.5</ele><time>2026-04-27T17:53:08Z</time></trkpt><trkpt lat="42.641615830499106" lon="11.983198589612988"><ele>309.0</ele><time>2026-04-27T17:53:10Z</time></trkpt><trkpt lat="42.64153260907914" lon="11.983095389400814"><ele>309.0</ele><time>2026-04-27T17:53:12Z</time></trkpt><trkpt lat="42.641449757668994" lon="11.983001217921366"><ele>309.0</ele><time>2026-04-27T17:53:14Z</time></trkpt><trkpt lat="42.641374311923116" lon="11.982905075238813"><ele>309.0</ele><time>2026-04-27T17:53:16Z</time></trkpt><trkpt lat="42.641318790977515" lon="11.982798352881018"><ele>309.0</ele><time>2026-04-27T17:53:18Z</time></trkpt><trkpt lat="42.641318440684735" lon="11.982659314716962"><ele>309.0</ele><time>2026-04-27T17:53:20Z</time></trkpt><trkpt lat="42.64135339209201" lon="11.982549084774316"><ele>309.0</ele><time>2026-04-27T17:53:22Z</time></trkpt><trkpt lat="42.64134531198014" lon="11.982448958630577"><ele>309.0</ele><time>2026-04-27T17:53:24.999Z</time></trkpt><trkpt lat="42.64131574717554" lon="11.982360014309904"><ele>309.0</ele><time>2026-04-27T17:54:02Z</time></trkpt><trkpt lat="42.64128088794833" lon="11.982277906456032"><ele>309.0</ele><time>2026-04-27T17:54:09Z</time></trkpt><trkpt lat="42.64103944826259" lon="11.982394737888885"><ele>309.0</ele><time>2026-04-27T17:58:50.356Z</time></trkpt><trkpt lat="42.64125473212519" lon="11.982592699228322"><ele>309.0</ele><time>2026-04-27T18:14:53.524Z</time></trkpt><trkpt lat="42.641490608569" lon="11.982986587676898"><ele>309.0</ele><time>2026-04-27T18:14:58.004Z</time></trkpt><trkpt lat="42.64127950355633" lon="11.982605841201735"><ele>309.0</ele><time>2026-04-27T18:15:04.355Z</time></trkpt><trkpt lat="42.64111040833657" lon="11.982559297052306"><ele>308.0</ele><time>2026-04-27T18:15:10.36Z</time></trkpt><trkpt lat="42.64166287211221" lon="11.982501051096765"><ele>308.0</ele><time>2026-04-27T18:15:27Z</time></trkpt><trkpt lat="42.64161630351946" lon="11.982436579129985"><ele>308.0</ele><time>2026-04-27T18:17:40Z</time></trkpt><trkpt lat="42.6416811258663" lon="11.982468531662873"><ele>308.0</ele><time>2026-04-27T18:18:03Z</time></trkpt><trkpt lat="42.64172644763336" lon="11.98240588772483"><ele>308.0</ele><time>2026-04-27T18:18:08Z</time></trkpt><trkpt lat="42.64176823403307" lon="11.982331941677883"><ele>308.0</ele><time>2026-04-27T18:18:14Z</time></trkpt><trkpt lat="42.641734529743474" lon="11.982243754555478"><ele>308.0</ele><time>2026-04-27T18:18:21Z</time></trkpt><trkpt lat="42.64167015478336" lon="11.982263993440158"><ele>308.0</ele><time>2026-04-27T18:18:30Z</time></trkpt><trkpt lat="42.64162615517002" lon="11.982338318139874"><ele>308.0</ele><time>2026-04-27T18:18:40Z</time></trkpt><trkpt lat="42.64158277470022" lon="11.98240153609506"><ele>308.0</ele><time>2026-04-27T18:18:54Z</time></trkpt><trkpt lat="42.641543581297235" lon="11.982473074293361"><ele>308.0</ele><time>2026-04-27T18:18:59.001Z</time></trkpt><trkpt lat="42.64151453869912" lon="11.98256457225281"><ele>308.0</ele><time>2026-04-27T18:19:04.001Z</time></trkpt><trkpt lat="42.641481659846356" lon="11.982367797314081"><ele>308.0</ele><time>2026-04-27T18:19:23.8Z</time></trkpt><trkpt lat="42.64112832743257" lon="11.98230708002136"><ele>308.0</ele><time>2026-04-27T18:19:28.41Z</time></trkpt><trkpt lat="42.641062494817874" lon="11.982191593409976"><ele>308.0</ele><time>2026-04-27T18:19:34.402Z</time></trkpt><trkpt lat="42.641328574283385" lon="11.982389743210554"><ele>308.0</ele><time>2026-04-27T18:21:00.351Z</time></trkpt><trkpt lat="42.64115857584721" lon="11.982337135085391"><ele>308.25</ele><time>2026-04-27T18:21:34.011Z</time></trkpt><trkpt lat="42.6410827514508" lon="11.98241138174819"><ele>308.5</ele><time>2026-04-27T18:23:02.349Z</time></trkpt><trkpt lat="42.640998083904364" lon="11.982222142557877"><ele>308.75</ele><time>2026-04-27T18:27:15.359Z</time></trkpt><trkpt lat="42.641056610044885" lon="11.982415827869373"><ele>309.0</ele><time>2026-04-27T18:27:28.413Z</time></trkpt><trkpt lat="42.64110224883762" lon="11.98230786132863"><ele>309.0</ele><time>2026-04-27T18:27:36.436Z</time></trkpt><trkpt lat="42.64112237588601" lon="11.982224161578532"><ele>309.0</ele><time>2026-04-27T18:27:39.276Z</time></trkpt><trkpt lat="42.64104250176708" lon="11.982419645282008"><ele>309.0</ele><time>2026-04-27T18:28:01.355Z</time></trkpt><trkpt lat="42.64138653395654" lon="11.982167489212776"><ele>308.8333333333333</ele><time>2026-04-27T18:28:09.006Z</time></trkpt><trkpt lat="42.641446637601696" lon="11.982193530935854"><ele>308.6666666666667</ele><time>2026-04-27T18:29:49.008Z</time></trkpt><trkpt lat="42.64144595624107" lon="11.982097145852473"><ele>308.5</ele><time>2026-04-27T18:29:54.009Z</time></trkpt><trkpt lat="42.6413672786975" lon="11.982092452733646"><ele>308.33333333333337</ele><time>2026-04-27T18:30:03.01Z</time></trkpt><trkpt lat="42.641265302101374" lon="11.98217408319832"><ele>308.1666666666667</ele><time>2026-04-27T18:30:13.009Z</time></trkpt><trkpt lat="42.6411949181606" lon="11.982226440159286"><ele>308.0</ele><time>2026-04-27T18:30:15.011Z</time></trkpt><trkpt lat="42.64127515451821" lon="11.98220677816835"><ele>308.0</ele><time>2026-04-27T18:30:22.009Z</time></trkpt><trkpt lat="42.641389306036174" lon="11.982142796317984"><ele>308.0</ele><time>2026-04-27T18:36:20.011Z</time></trkpt><trkpt lat="42.64144510618216" lon="11.98222708900964"><ele>308.0</ele><time>2026-04-27T18:39:32Z</time></trkpt><trkpt lat="42.64151703741212" lon="11.982395040611612"><ele>308.0</ele><time>2026-04-27T18:39:33Z</time></trkpt><trkpt lat="42.641492965974145" lon="11.982314173264315"><ele>308.0</ele><time>2026-04-27T18:40:30.002Z</time></trkpt><trkpt lat="42.64142532970164" lon="11.982200302266863"><ele>308.0</ele><time>2026-04-27T18:41:39.001Z</time></trkpt><trkpt lat="42.64148734102451" lon="11.982239571618079"><ele>308.0</ele><time>2026-04-27T18:42:41.001Z</time></trkpt><trkpt lat="42.641488624480104" lon="11.982327015781888"><ele>308.0</ele><time>2026-04-27T18:42:49.002Z</time></trkpt><trkpt lat="42.64153870057191" lon="11.98239326031018"><ele>308.0</ele><time>2026-04-27T18:43:11Z</time></trkpt><trkpt lat="42.64154117085139" lon="11.982194838818357"><ele>308.0</ele><time>2026-04-27T18:43:25Z</time></trkpt><trkpt lat="42.64156443958021" lon="11.982351678716395"><ele>308.0</ele><time>2026-04-27T18:43:47Z</time></trkpt><trkpt lat="42.64152005738914" lon="11.98242840265089"><ele>308.0</ele><time>2026-04-27T18:44:42.001Z</time></trkpt><trkpt lat="42.64156307561245" lon="11.982601543252649"><ele>308.0</ele><time>2026-04-27T18:44:55.001Z</time></trkpt><trkpt lat="42.64143632014498" lon="11.982402159552409"><ele>308.0</ele><time>2026-04-27T18:45:41Z</time></trkpt><trkpt lat="42.641550789135856" lon="11.982649151263503"><ele>308.0</ele><time>2026-04-27T18:45:47Z</time></trkpt><trkpt lat="42.641593124775426" lon="11.982779951846956"><ele>308.0</ele><time>2026-04-27T18:45:49Z</time></trkpt><trkpt lat="42.64166737792934" lon="11.9826833594573"><ele>308.0</ele><time>2026-04-27T18:45:50Z</time></trkpt><trkpt lat="42.641548416459955" lon="11.982529510582793"><ele>308.0</ele><time>2026-04-27T18:45:55Z</time></trkpt><trkpt lat="42.641508681544835" lon="11.98245815813594"><ele>308.0</ele><time>2026-04-27T18:45:57Z</time></trkpt><trkpt lat="42.64151677003548" lon="11.98236045535784"><ele>308.0</ele><time>2026-04-27T18:46:01Z</time></trkpt><trkpt lat="42.64143303525665" lon="11.98248954450015"><ele>308.0</ele><time>2026-04-27T18:46:24.001Z</time></trkpt><trkpt lat="42.641471485501334" lon="11.982603086751766"><ele>308.0</ele><time>2026-04-27T18:46:26.001Z</time></trkpt><trkpt lat="42.641458829148306" lon="11.98274178648373"><ele>308.0</ele><time>2026-04-27T18:46:29.001Z</time></trkpt><trkpt lat="42.6415929128986" lon="11.98291175445383"><ele>308.0</ele><time>2026-04-27T18:46:31.001Z</time></trkpt><trkpt lat="42.64155834162069" lon="11.982781758299803"><ele>308.0</ele><time>2026-04-27T18:46:41.001Z</time></trkpt><trkpt lat="42.641520311572044" lon="11.982700032330715"><ele>308.0</ele><time>2026-04-27T18:46:57.001Z</time></trkpt><trkpt lat="42.6415254376807" lon="11.98259837473291"><ele>308.0</ele><time>2026-04-27T18:47:10.002Z</time></trkpt><trkpt lat="42.64150190389646" lon="11.982489039220477"><ele>308.0</ele><time>2026-04-27T18:47:22Z</time></trkpt><trkpt lat="42.64139045163929" lon="11.982193646312808"><ele>308.0</ele><time>2026-04-27T18:47:29Z</time></trkpt><trkpt lat="42.641476666620115" lon="11.982265806226987"><ele>308.0</ele><time>2026-04-27T18:48:24.001Z</time></trkpt><trkpt lat="42.641442068270244" lon="11.982359543359665"><ele>308.0</ele><time>2026-04-27T18:49:01.002Z</time></trkpt><trkpt lat="42.641496324465535" lon="11.98243265290236"><ele>308.0</ele><time>2026-04-27T18:49:04.002Z</time></trkpt><trkpt lat="42.64153082838927" lon="11.982514863851542"><ele>308.0</ele><time>2026-04-27T18:49:15.002Z</time></trkpt><trkpt lat="42.64155748757033" lon="11.98260345458843"><ele>308.0</ele><time>2026-04-27T18:49:19.002Z</time></trkpt><trkpt lat="42.641549129556054" lon="11.982494489632726"><ele>308.0</ele><time>2026-04-27T18:49:21.002Z</time></trkpt><trkpt lat="42.64147197825942" lon="11.981986876686127"><ele>308.0</ele><time>2026-04-27T18:49:22.06Z</time></trkpt><trkpt lat="42.6414458569685" lon="11.98185506358859"><ele>308.0</ele><time>2026-04-27T18:49:23.06Z</time></trkpt><trkpt lat="42.64142213102818" lon="11.98200162331806"><ele>308.0</ele><time>2026-04-27T18:49:28Z</time></trkpt><trkpt lat="42.64140906714663" lon="11.982098736913304"><ele>308.0</ele><time>2026-04-27T18:49:30Z</time></trkpt><trkpt lat="42.64143871011856" lon="11.982223491955237"><ele>308.0</ele><time>2026-04-27T18:49:32Z</time></trkpt><trkpt lat="42.64145815461678" lon="11.982307623707218"><ele>308.0</ele><time>2026-04-27T18:49:34Z</time></trkpt><trkpt lat="42.64150219002848" lon="11.98240957875476"><ele>308.0</ele><time>2026-04-27T18:50:04Z</time></trkpt><trkpt lat="42.64156364175375" lon="11.982510404721076"><ele>308.0</ele><time>2026-04-27T18:50:07Z</time></trkpt><trkpt lat="42.6415810245106" lon="11.982626047608434"><ele>308.0</ele><time>2026-04-27T18:50:08Z</time></trkpt><trkpt lat="42.641557146911744" lon="11.982726355378368"><ele>308.0</ele><time>2026-04-27T18:50:13Z</time></trkpt><trkpt lat="42.6415805549194" lon="11.982521067774462"><ele>308.0</ele><time>2026-04-27T18:50:15Z</time></trkpt><trkpt lat="42.64155803020049" lon="11.98236983790678"><ele>308.0</ele><time>2026-04-27T18:50:17.001Z</time></trkpt><trkpt lat="42.64152964272835" lon="11.982267282009122"><ele>308.0</ele><time>2026-04-27T18:50:18.001Z</time></trkpt><trkpt lat="42.64154210327852" lon="11.982168623566789"><ele>308.0</ele><time>2026-04-27T18:50:21.001Z</time></trkpt><trkpt lat="42.64157475864212" lon="11.982296367737247"><ele>308.0</ele><time>2026-04-27T18:50:22.001Z</time></trkpt><trkpt lat="42.641603453407456" lon="11.982396798908999"><ele>308.0</ele><time>2026-04-27T18:50:23.001Z</time></trkpt><trkpt lat="42.64162076987068" lon="11.982482678970507"><ele>308.0</ele><time>2026-04-27T18:50:24.001Z</time></trkpt><trkpt lat="42.64164543427594" lon="11.982575750080589"><ele>308.0</ele><time>2026-04-27T18:50:27.001Z</time></trkpt><trkpt lat="42.64174495966253" lon="11.982890944393786"><ele>308.1666666666667</ele><time>2026-04-27T18:50:30.001Z</time></trkpt><trkpt lat="42.64180826694528" lon="11.983023149952079"><ele>308.33333333333337</ele><time>2026-04-27T18:50:31.001Z</time></trkpt><trkpt lat="42.64177380449004" lon="11.982947577105032"><ele>308.5</ele><time>2026-04-27T18:50:48.001Z</time></trkpt><trkpt lat="42.641794174237425" lon="11.98284647126022"><ele>308.6666666666667</ele><time>2026-04-27T18:50:52.001Z</time></trkpt><trkpt lat="42.64177690700288" lon="11.982741185840917"><ele>308.8333333333333</ele><time>2026-04-27T18:50:55.001Z</time></trkpt><trkpt lat="42.64174305025272" lon="11.982652482785781"><ele>309.0</ele><time>2026-04-27T18:51:01.001Z</time></trkpt><trkpt lat="42.64165088940646" lon="11.982559007289757"><ele>309.0</ele><time>2026-04-27T18:51:13.002Z</time></trkpt><trkpt lat="42.64161063441199" lon="11.982356389666833"><ele>309.0</ele><time>2026-04-27T18:51:27.002Z</time></trkpt><trkpt lat="42.641688608995466" lon="11.982471193990646"><ele>309.0</ele><time>2026-04-27T18:52:12Z</time></trkpt><trkpt lat="42.64176912044212" lon="11.982479240798018"><ele>309.0</ele><time>2026-04-27T18:52:17Z</time></trkpt><trkpt lat="42.6417953412243" lon="11.9825702443431"><ele>309.0</ele><time>2026-04-27T18:52:18Z</time></trkpt><trkpt lat="42.64180754075355" lon="11.982673420659342"><ele>309.0</ele><time>2026-04-27T18:52:20Z</time></trkpt><trkpt lat="42.641765581118506" lon="11.982592473202335"><ele>309.0</ele><time>2026-04-27T18:52:24.001Z</time></trkpt><trkpt lat="42.641483149981674" lon="11.982239781905436"><ele>309.0</ele><time>2026-04-27T18:52:30.001Z</time></trkpt><trkpt lat="42.64158901179013" lon="11.982585638244275"><ele>309.0</ele><time>2026-04-27T18:53:30.002Z</time></trkpt><trkpt lat="42.64158177318948" lon="11.982471846377342"><ele>309.0</ele><time>2026-04-27T18:53:44Z</time></trkpt><trkpt lat="42.641511654451385" lon="11.982372746810505"><ele>309.0</ele><time>2026-04-27T18:53:47Z</time></trkpt><trkpt lat="42.64150127213179" lon="11.982274231825643"><ele>309.0</ele><time>2026-04-27T18:53:51Z</time></trkpt><trkpt lat="42.641611390675706" lon="11.982578665072323"><ele>309.0</ele><time>2026-04-27T18:54:18Z</time></trkpt><trkpt lat="42.64157660458749" lon="11.9826521460931"><ele>309.0</ele><time>2026-04-27T18:54:19Z</time></trkpt><trkpt lat="42.641617641535866" lon="11.982473144894918"><ele>308.5</ele><time>2026-04-27T18:54:29.058Z</time></trkpt><trkpt lat="42.641565553216005" lon="11.982422588955144"><ele>308.0</ele><time>2026-04-27T18:54:32.025Z</time></trkpt><trkpt lat="42.641153354523226" lon="11.982203477575888"><ele>308.0</ele><time>2026-04-27T18:54:54.366Z</time></trkpt><trkpt lat="42.64104906086709" lon="11.982415188412896"><ele>308.0</ele><time>2026-04-27T18:55:00.36Z</time></trkpt><trkpt lat="42.64130423237886" lon="11.982384061225293"><ele>308.0</ele><time>2026-04-27T18:55:06.014Z</time></trkpt><trkpt lat="42.64142356965525" lon="11.982330364992858"><ele>308.0</ele><time>2026-04-27T18:55:15.001Z</time></trkpt><trkpt lat="42.64098891481195" lon="11.982346731761174"><ele>308.0</ele><time>2026-04-27T19:07:35.079Z</time></trkpt><trkpt lat="42.641333975559284" lon="11.982338282643028"><ele>308.0</ele><time>2026-04-27T19:07:58.014Z</time></trkpt><trkpt lat="42.64132663300031" lon="11.982238048554121"><ele>308.0</ele><time>2026-04-27T19:08:15.013Z</time></trkpt><trkpt lat="42.641263699640895" lon="11.98223010737644"><ele>308.0</ele><time>2026-04-27T19:08:22.013Z</time></trkpt><trkpt lat="42.64148358879094" lon="11.98235753996303"><ele>308.0</ele><time>2026-04-27T19:10:23.001Z</time></trkpt><trkpt lat="42.64146635945429" lon="11.982254296985795"><ele>308.0</ele><time>2026-04-27T19:15:04.999Z</time></trkpt><trkpt lat="42.64144628940176" lon="11.982168674002244"><ele>308.0</ele><time>2026-04-27T19:15:10Z</time></trkpt><trkpt lat="42.641437702498315" lon="11.982077630562049"><ele>308.0</ele><time>2026-04-27T19:15:14Z</time></trkpt><trkpt lat="42.64136778774762" lon="11.982007316906435"><ele>308.0</ele><time>2026-04-27T19:15:19Z</time></trkpt><trkpt lat="42.64125891272613" lon="11.98210639118794"><ele>308.0</ele><time>2026-04-27T19:16:03.417Z</time></trkpt><trkpt lat="42.641186487979446" lon="11.982139073780388"><ele>308.0</ele><time>2026-04-27T19:16:04.535Z</time></trkpt><trkpt lat="42.64111858665266" lon="11.982268605674374"><ele>308.0</ele><time>2026-04-27T19:16:10.367Z</time></trkpt><trkpt lat="42.641187253774234" lon="11.982396717742489"><ele>308.0</ele><time>2026-04-27T19:16:16.358Z</time></trkpt><trkpt lat="42.641108466355284" lon="11.98238047455532"><ele>308.0</ele><time>2026-04-27T19:16:31.016Z</time></trkpt><trkpt lat="42.64103339140147" lon="11.982379881167436"><ele>308.0</ele><time>2026-04-27T19:16:32.018Z</time></trkpt><trkpt lat="42.6411413168033" lon="11.982454980672093"><ele>308.0</ele><time>2026-04-27T19:16:35.001Z</time></trkpt><trkpt lat="42.64120676536535" lon="11.982454877624512"><ele>308.0</ele><time>2026-04-27T19:16:39.001Z</time></trkpt><trkpt lat="42.64125915327872" lon="11.98238231716005"><ele>308.0</ele><time>2026-04-27T19:16:45.001Z</time></trkpt><trkpt lat="42.641354088627196" lon="11.982358812989169"><ele>308.0</ele><time>2026-04-27T19:16:54.002Z</time></trkpt></trkseg></trk></gpx>